Bharatpur
S.No. Kiosk Code Kiosk Name LSP Address Ph. No. Credit Limit Remaining Limit Active / Deactive Creation Date Deactivation Date Prepaid Limit Virtual Limit
1 431 CSC Mudhera CSC Vakrangee Bharatpur Rural Village-Mudhera Block-Rupbas Bharatpur  9887432656  Active  16-08-2012    0.00 
2 501 CSC Gopalgarh CSC Vakrangee Bharatpur Rural Village Gopalgarh  Block NAGAR  District BHARATPUR   9983757532  113  600  Active  10-10-2012    0.00 
3 743 CSC Karhi_WRS 2014-Aksh-BHARATPUR Village - Karhi Block - Karhi Dist. - Bharatpur  9461694089  168  Active  07-08-2014    301.99  0.00 
4 744 Vinod Kumar Sharma 2014-Aksh-BHARATPUR chudi market town nagar   Dist. - Bharatpur  9694431183  Active  07-08-2014    -149.2  0.00 
5 747 CSC Khera_WRS 2014-Aksh-BHARATPUR Village - Khera Block - Nadbai Dist. - Bharatpur  9057975797  29  Active  07-08-2014    3.14  0.00 
6 748 CSC Janoothar_WRS 2014-Aksh-BHARATPUR Village - Janoothar Block - Deeg Dist. Bharatpur  9602813066  Active  07-08-2014    657.97  0.00 
7 788 Ravi Saini 2014-Aksh-BHARATPUR Near Buis Stand Rarah Tehsil Kumher Dist. Bharatpur  9785056392  90  Active  21-08-2014    498.78  31.57 
8 791 Mahendra Kumar 2014-Aksh-BHARATPUR Court Campus Tehsil, Bayana Dist. - Bharatpur  9461100334  260  Active  21-08-2014    2277.12  765.22 
9 797 Pavnesh Kumar 2014-Aksh-BHARATPUR Near PNB bank Khanua Teh. Rupwas Dist. Bharatpur  9928771440  Active  21-08-2014    -148.28  0.00 
10 807 Dinesh Kumar Sharma 2014-Aksh-BHARATPUR Shyam Nagar  Colony Behind Central School Bharatpur  7790898199  280  Active  22-08-2014    179.57  19.13 
11 810 Nateen Singh 2014-Aksh-BHARATPUR Main Market Old Post  Office Pahari Tehsil  Disst. - Bharatpur  9783715200  1620  Active  23-08-2014    8291.98  9.57 
12 816 Ghanshyam Saini 2014-Aksh-BHARATPUR Main Market Sikri Tehisl - Nagar Disst. - Bharatpur  9785508730  781  Active  27-08-2014    332.74  57.39 
13 817 Sher Singh 2014-Aksh-BHARATPUR Hospital Ke Pass Uchchain Road Sear Bharatpur  9828607228  1500  Active  27-08-2014    539.24  45.91 
14 818 Rakesh Kumar Sharma 2014-Aksh-BHARATPUR Prince Attachi House Deewan Mohalla  Kaman Bharatpur  9529480001  490  Active  27-08-2014    84.57  126.26 
15 819 Ashok Kumar 2014-Aksh-BHARATPUR VPO Bidyari  Tehsil 0 Bayana Bharatpur  9351939397  Active  27-08-2014    60.86  0.00 
16 855 Kamlesh Prasad Sharma 2014-Aksh-BHARATPUR Reliance Medicals Goal Baug road Bharatpur  8104525131  Active  08-09-2014    -649.26  0.00 
17 856 Fatte Krishna Gaur 2014-Aksh-BHARATPUR Bus Stand Jurhere  Tehsil - Kaman Disst. - Bharatpur  9649340809  97  Active  08-09-2014    11.33  0.00 
18 865 Nakul Raj 2014-Aksh-BHARATPUR Single Window E Sugam Kumher  Dist. Jaipur  9785037811  125  Active  11-09-2014    2097.41  994.78 
19 895 Meena Devi 2014-Aksh-BHARATPUR Near Court  Deeg Bharatpur  9414584015  10000  Active  16-09-2014    167.06  0.00 
20 897 Mayuri emitra 2014-Aksh-BHARATPUR opposite govt.  hospital weir Bharatpur  9928585402  2870  Active  16-09-2014    111.08  57.39 
21 898 Mina Devi 2014-Aksh-BHARATPUR BNRGSK Panchayat Samiti DeeG Bharatpur  9829333108  1172  Active  16-09-2014    2368.52  650.43 
22 899 Sachin Khandelwal 2014-Aksh-BHARATPUR Near Devi Ram Kachori wala Choburja Market Bharatpur  9461695960  Active  16-09-2014    571.36  0.00 
23 901 Santosh Kumar 2014-Aksh-BHARATPUR Surajmal Nagar Near Center School Bharatpur  9887112441  40000  21350  Active  17-09-2014    927.5  0.00 
24 919 KRISHNA KANT 2014-Aksh-BHARATPUR Ram Nagar Colony Bhartpur   7792001955  Active  19-09-2014    -11.6  0.00 
25 932 Zuber Khan 2014-Aksh-BHARATPUR Cheetha Wali Gali Chaburja Bazar Bharatpur  9462484927  1288  Active  25-09-2014    718.39  0.00 
26 933 Ashok Kumar 2014-Aksh-BHARATPUR Mastana Music Center Old Post Office  Bharatpur  9887102523  717  Active  25-09-2014    1659.11  0.00 
27 966 Gulap Khandelwal 2014-Aksh-BHARATPUR Peer Mohalla  kaman Bharatpur  05640250100  40000  1778  Active  09-10-2014    88.74  36.35 
28 982 Manoj sharma 2014-Aksh-BHARATPUR Peer mohalla ward no 17 Kama Kaman Bharatpur  05640-251101  Active  13-10-2014    -44.88  0.00 
29 999 SUNIL KUMAR 2014-Aksh-BHARATPUR A32 JAWAHAR NAGAR  BHARATPUR   9414303388  633  Active  22-10-2014    .39  65.04 
30 1000 ABHAY KUMAR JAIN 2014-Aksh-BHARATPUR INFRONT OF COURT BKAMAN  BHARATPUR   9875000161  81  Active  22-10-2014    32.12  0.00 
31 1003 Suresh Sharma 2014-Aksh-BHARATPUR Tehsil Parisar  Kaman Bharatpur  9413672361  1540  Active  27-10-2014    .01  1580.17 
32 1004 RITESH GARG 2014-Aksh-BHARATPUR Teshsil Campus Weir    9509489583  2340  Active  27-10-2014    .12  872.35 
33 1005 Surendra Sharma 2014-Aksh-BHARATPUR Tehsil- Bhusawar Bharatpur- 321406   05643271000  370  Active  27-10-2014    6236.08  0.00 
34 1006 MEENA DEVI 2014-Aksh-BHARATPUR Tehsil Campus Deeg   8058565580  Active  27-10-2014    65.74  0.00 
35 1008 Deepak Kumar Jain 2014-Aksh-BHARATPUR Tehsil Office Bharatpur    9929929920  7838  Active  27-10-2014    3569.12  1511.30 
36 1029 Jitendra Kumar 2014-Aksh-BHARATPUR near bank of baroda  bayana Bharatpur  9783283874  713  Active  03-11-2014    97.5  0.00 
37 1030 Amit Sharma 2014-Aksh-BHARATPUR Near Railway Station Bharatpur   9461582799  90000  78775  Active  03-11-2014    346.6  26.78 
38 1031 Gaurav Sharma 2014-Aksh-BHARATPUR New Santan Dharam  Market Bharatpur  9414375500  40000  Active  03-11-2014    .39  0.00 
39 1038 Dharam Chand 2014-Aksh-BHARATPUR OLD PAHADI ROAD BILOD STAND KAMAN BHARATPUR    9950659910  775  Active  06-11-2014    1473.27  0.00 
40 1046 Sanjeev Kumar Sharma 2014-Aksh-BHARATPUR MUDGAL DIGITAL STUDIO NEW MANDI BHARATPUR    9166944376  Active  20-11-2014    801.76  0.00 
41 1048 Purshottam 2014-Aksh-BHARATPUR NEAR PANCHAYAT SAMITI ROOPWAS DIST BHARATPUR RAJASTHAN    8058252616  -105  Active  20-11-2014    .37  0.00 
42 1052 Dinesh Kumar Sharma 2014-Aksh-BHARATPUR JAIN MANDIR SE SAMNE PAHADI DIST BHARATPUR    9610107548  Active  21-11-2014    .36  0.00 
43 1073 Ram Kunwar 2014-Aksh-BHARATPUR MAIN MARKET SATAVADI DIST BHARATPUR RAJASTHAN    9001660241  1739  Active  26-11-2014    33411.8  0.00 
44 1075 Mayank Jain 2014-Aksh-BHARATPUR NEAR JAIN MANDIR SEWAR ROAD BHARATPUR RAJASTHAN    9166772669  2251  Active  27-11-2014    644.33  0.00 
45 1079 Aksh Optifibre 2014-Aksh-BHARATPUR Room No.55  Dist. collectrate  Bharatpur  9414059654  1649  Active  27-11-2014    5624.03  57.39 
46 1081 Dharmveer Singh 2014-Aksh-BHARATPUR In front of Santoshi Temple Surajpole Gate Bharatpur  9529040674  10000  84  Active  27-11-2014    264.62  114.78 
47 1082 Aksh Rajeev Gandhi Seva Kendra Bharatpur 2014-Aksh-BHARATPUR Bharat Nirmaan Rajeev Gandhi Seva Kendra Bharatpur   9414059654  20000  10  Active  27-11-2014    1747.81  0.00 
48 1092 Jyoti Sharma 2014-Aksh-BHARATPUR TEHSIL NADBAI BHARATPUR    9024903752  460  Active  01-12-2014    1500.83  344.35 
49 1094 Rajeswari Devi 2014-Aksh-BHARATPUR MAIN MARKET UCHCHAIN TEH ROOPWAS DIST BHARATPUR RAJASTHAN    9887433476  Active  01-12-2014    .52  0.00 
50 1095 Ghanshyam Singhal 2014-Aksh-BHARATPUR BAPU MARKET NAGAT DIST BHARATPUR RAJASTHAN    9983956579  223  Active  01-12-2014    387.9  26.78 
51 1097 Umesh Tiwari 2014-Aksh-BHARATPUR MURWARA ROAD SUBHASH NAGAR BHARATPUR RAJASTHAN    9413300272  Active  01-12-2014    .47  0.00 
52 1098 Vineet Kumar 2014-Aksh-BHARATPUR BIHARI GALI RUDAWAL DIST BHARATPUR RAJASTHAN    9649013300  846  Active  02-12-2014    344.49  0.00 
53 1105 Aksh Optifibre Limited 2014-Aksh-BHARATPUR BNSK HQ TEHSIL ROOPWAS DISTRICT BHARATPUR     9694420125  Active  05-12-2014    1086.12  0.00 
54 1112 Mohit Kumar Gupta 2014-Aksh-BHARATPUR 122 RAJENDRA NAGAR BHARATPUR RAJASTHAN    9414692950  2488  Active  11-12-2014    728.54  38.26 
55 1113 Durga Prasad 2014-Aksh-BHARATPUR RADHA COLONY, NEAR RADHA BALLABH TEMPLE  KAMAN, BHARATPUR undefined  9829121852  Active  11-12-2014    47.83  0.00 
56 1131 Naeem Khan 2014-Aksh-BHARATPUR ANAND NAGAR COLONY BHARATPUR RAJASTHAN    9694946814  Active  19-12-2014    .37  0.00 
57 1142 Anil Kumar jindal 2014-Aksh-BHARATPUR In front of Sindhi dharmashala Gate Road  Bharatpur  9694139121  240000  317  Active  22-12-2014    103463.51  0.00 
58 1143 Dilip Kumar Pahadia 2014-Aksh-BHARATPUR Old Anaj Mandi Bhusawar Bharatpur  9875057615  90000  806  Active  22-12-2014    187.05  0.00 
59 1145 Rama eMitra Centre 2014-Aksh-BHARATPUR Basan Gate Chouraha Bharatpur   9667621874  120000  623  Active  22-12-2014    43.76  80.35 
60 1146 Gurumeet eMitra 2014-Aksh-BHARATPUR Bizli Ghar Collectrate Road  Bharatpur  05644220610  40000  311  Active  22-12-2014    .04  1109.57 
61 1147 Aditiya emitra kiosk 2014-Aksh-BHARATPUR Near Devi Temple Ranjeet Nagar Bharatpur  9461336851  40000  320  Active  22-12-2014    792.91  0.00 
62 1148 Jeetendra Emitra Center 2014-Aksh-BHARATPUR Golpura Road, Subhash nagar behind central bus stand Bharatpur  9414893789  90000  3356  Active  22-12-2014    2500.68  26.78 
63 1150 Lokesh Sharma 2014-Aksh-BHARATPUR Infront of RTO Office Anah Bharatpur  9887959411  90000  58  Active  22-12-2014    1204.01  0.00 
64 1152 Manish emitra Center 2014-Aksh-BHARATPUR Manish emitra center Mahal khas road kila  Bharatpur  9982920850  50000  50000  Active  22-12-2014    215  0.00 
65 1153 Manoj Chahar 2014-Aksh-BHARATPUR Infornt of MSJ College 23-Geeta Colony  Bharatpur  9680838811  1743  Active  22-12-2014    186.29  26.78 
66 1154 Manoj Khandelwal 2014-Aksh-BHARATPUR Near Kiran Niwas home ke  goverdhan gate  Bharatpur  9783001714  754  Active  22-12-2014    662.68  0.00 
67 1156 Mohit Khandelwal 2014-Aksh-BHARATPUR Chhote Ramji ke samne Kumher  Bharatpur  8875075750  1405  Active  22-12-2014    647.46  33.48 
68 1157 Narendra kumar Jindal 2014-Aksh-BHARATPUR Behind of ganga Mandir Chohara near Budh ki hat Bharatpur  9414344163  140000  102  Active  22-12-2014    713.41  0.00 
69 1158 Paritosh 2014-Aksh-BHARATPUR 28, shoping center  Krishna Nagar Bharatpur  9828102544  10000  10083  Active  22-12-2014    .27  0.00 
70 1160 Vinay Goyal 2014-Aksh-BHARATPUR Kumher Road Bus Stand ke Samne katra Nadbai Bharatpur  9785615572  90000  110  Active  22-12-2014    356.84  0.00 
71 1161 Atul Emitra 2014-Aksh-BHARATPUR Gandhi Chowk  Bayana Bharatpur  9414485885  40000  437  Active  22-12-2014    43.86  0.00 
72 1162 Banvari Shrama Emitra Bayana 2014-Aksh-BHARATPUR Cachari Road  Bayana Bharatpur  9887241956  86  Active  22-12-2014    327.2  57.39 
73 1163 Bhoodev Goyal Emitra Center Nadbai 2014-Aksh-BHARATPUR Near APS School ware House Road nadbai Bharatpur  9024920267  40000  492  Active  22-12-2014    1.32  33.48 
74 1164 Chandra Shekhar Sharma 2014-Aksh-BHARATPUR Near Panchayat Samiti  Sewar Bharatpur  9782565377  30000  180  Active  22-12-2014    62.02  38.26 
75 1165 Mukesh emitra Center 2014-Aksh-BHARATPUR Near Ghanta Ghar Deeg Bharatpur  9414870877  40000  3836  Active  22-12-2014    65.17  0.00 
76 1167 Nidhi eMitra Center 2014-Aksh-BHARATPUR Krishna Nagar Bharatpur   9828265217  Active  22-12-2014    0.00 
77 1169 Rohit eMitra Center 2014-Aksh-BHARATPUR Arya Samaj Road Bharatpur   9252066443  40000  1622  Active  22-12-2014    340.36  0.00 
78 1170 Chankee Arora 2014-Aksh-BHARATPUR Ridhi Sidhi complex infront of thana  Nadbai Bharatpur  9166437449  206  Active  22-12-2014    2709.28  110.96 
79 1172 Deepak Emitra Center 2014-Aksh-BHARATPUR Tehsil parisar ke andar Nagar Bharatpur  9887835434  1381  Active  22-12-2014    1946.87  95.65 
80 1173 Suresh Sharma emitra Center 2014-Aksh-BHARATPUR Near New Tehsil Kaman Bharatpur   9413672361  994  Active  22-12-2014    551.59  543.30 
81 1174 Mahesh Sharma 2014-Aksh-BHARATPUR New Road  Deeg Bharatpur  05641220820  90000  1872  Active  22-12-2014    341.83  0.00 
82 1177 Yatendra Kumar 2014-Aksh-BHARATPUR Nomish Road Bharatpur   9667179064  Active  22-12-2014    -77.63  0.00 
83 1178 Deepak Gupta 2014-Aksh-BHARATPUR Middle School Ki Gali Deeg Bharatpur  9887228511  400  Active  22-12-2014    .43  0.00 
84 1179 Pramod Singh 2014-Aksh-BHARATPUR Near Saini Mishtan Bhandar Bus stand, Bharatpur   9887764466  90000  Active  22-12-2014    -2199.65  0.00 
85 1180 Lalit Khatri 2014-Aksh-BHARATPUR Near Shamshan Ghat Subhash Colony Bharatpur  9413303004  1688  Active  22-12-2014    1026.8  122.43 
86 1181 Pankaj Jain 2014-Aksh-BHARATPUR Jain Computers Katra Nadbai Bharatpur  05643276714  40000  244  Active  22-12-2014    263.94  62.17 
87 1182 Rachna Sharma 2014-Aksh-BHARATPUR Anah Gate Bajariya Bharatpur   9785099684  30000  1336  Active  22-12-2014    56.43  0.00 
88 1184 Mangal Singh 2014-Aksh-BHARATPUR Near Neha Clinic Vijaynagar Saras Circle Bharatpur  9983449155  151  Active  22-12-2014    72.49  0.00 
89 1185 Deepak Verma 2014-Aksh-BHARATPUR Near P N B Bank Kumher Bharatpur  9887512513  15000  15005  Active  22-12-2014    1805.78  14.35 
90 1186 Madan Mohan 2014-Aksh-BHARATPUR New Bust Stand Weir Bharatpur   9468664073  15000  Active  22-12-2014    .95  0.00 
91 1187 Rakesh Sharma 2014-Aksh-BHARATPUR Madarpur Road Infront of Podar Kothi Bharatpur   9887353542  90000  186  Active  22-12-2014    564.5  0.00 
92 1188 Neeraj 2014-Aksh-BHARATPUR Super Market  GPF Office Ke Samne Bharatpur  9680702196  40000  171  Active  22-12-2014    25.26  0.00 
93 1189 Deepak Raj 2014-Aksh-BHARATPUR 109 Sewar Bazar Sewar Bharatpur  9928328689  10000  1609  Active  22-12-2014    .53  53.57 
94 1191 Pooja Khandelwal 2014-Aksh-BHARATPUR B 4 Jawahar Nagar Bharatpur   05644220008  69  Active  22-12-2014    63.84  4.78 
95 1192 Rupesh Kumar 2014-Aksh-BHARATPUR Ram Singh Ka Nagla Bajariya Bharatpur  9785362498  15000  1300  Active  22-12-2014    128.86  99.48 
96 1194 Manoj Kumar 2014-Aksh-BHARATPUR Saharai Road Deeg Bharatpur  9983406728  1169  Active  22-12-2014    67.03  71.74 
97 1195 Ravi Shankar Sharma 2014-Aksh-BHARATPUR Goverdhan Road Deeg Bharatpur  8058568722  10000  2402  Active  22-12-2014    175.04  0.00 
98 1196 Veerendra Singh 2014-Aksh-BHARATPUR Near S.P. Office Bharatpur   9887002112  1426  Active  22-12-2014    575.37  65.04 
99 1197 Ritvis Cyber World 2014-Aksh-BHARATPUR 475 SPM Nagar Bharatpur   9784648494  Active  22-12-2014    334.98  0.00 
100 1199 Sudhir Kumar Sharma 2014-Aksh-BHARATPUR BNRGSK Panchayat Samiti Nadwai  9887982284  131  Active  22-12-2014    1752.97  0.00 
101 1201 Hitesh Kumar 2014-Aksh-BHARATPUR BNRGSK Panchayat Samiti Kaman  9887242675  15000  360  Active  22-12-2014    1015.97  4.78 
102 1202 Honey Saraswat 2014-Aksh-BHARATPUR BNRGSK Panchayat Smiti Bayana  9414942200  785  Active  22-12-2014    6707.92  554.78 
103 1203 Manvendra 2014-Aksh-BHARATPUR 36, Shopping Center Krishna Nagar Bharatpur   9799348952  340  Active  22-12-2014    36.08  76.52 
104 1204 Pankaj Yadav 2014-Aksh-BHARATPUR Near Suraj Pole Gate Gopal Garh Bharatpur   9782597856  282  Active  22-12-2014    244.21  19.13 
105 1207 Rajendra Goyal 2014-Aksh-BHARATPUR Near Power House Bharatpur   9530445152  Active  22-12-2014    -149.23  0.00 
106 1208 Pradeep Kaushik 2014-Aksh-BHARATPUR Nabab Gali Mathura Gate Bharatpur   9413304237  Active  22-12-2014    4.78  0.00 
107 1210 Dinesh Kumar Goyal 2014-Aksh-BHARATPUR Sadar Bazar Kaman  Bharatpur   9351721784  492  Active  22-12-2014    989.72  122.43 
108 1211 Ravi Prakash 2014-Aksh-BHARATPUR Old Sabji Mandi Near Main Post Office Bayana Bharatpur  9460174979  12  Active  22-12-2014    87.46  0.00 
109 1212 Sushil Shukla 2014-Aksh-BHARATPUR A-12 Ranjeet Nagar Bharatpur   9460012395  169  Active  22-12-2014    134.33  0.00 
110 1213 Hirendra Kumar 2014-Aksh-BHARATPUR Near S.B.I. Bank  Kumhar Gate  Bharatpur  9667153781  Active  22-12-2014    .2  0.00 
111 1215 Praveen Kumar 2014-Aksh-BHARATPUR Infornt of Police Station  Nadbai Bharatpur  9461694089  1259  Active  22-12-2014    757.7  110.96 
112 1216 Devendra Pal 2014-Aksh-BHARATPUR Kasgang Road Nadabi Bharatpur   9785467573  654  Active  22-12-2014    38.59  45.91 
113 1217 Arun Kumar Saxena 2014-Aksh-BHARATPUR Near Mahaveer Public School Rundhiya Nagar Bharatpur  9468885839  289  Active  22-12-2014    1095.99  0.00 
114 1223 Aksh Optifiber Limited 2014-Aksh-BHARATPUR JILA UDHYOG KENDRA BHARATPUR RAJASTHAN     01412770085  Active  25-12-2014    144.75  0.00 
115 1230 Aslam 2014-Aksh-BHARATPUR BNRGSK Panchayat Samiti Nagar  9982090666  436  Active  25-12-2014    95.14  417.04 
116 1255 Ganesh Dutt Mishra 2014-Aksh-BHARATPUR GOPALGHAR BHARATPUR    9680714485  198  Active  09-01-2015    35.06  0.00 
117 1258 Ram Mohan 2014-Aksh-BHARATPUR ANHA  GATE BAJARIYA BHARATPUR    8387978336  1462  Active  09-01-2015    104.41  442.87 
118 1259 Daniel 2014-Aksh-BHARATPUR OUTSIDE  SURAJ POLE GATE BHARATPUR   9783863436  220  Active  09-01-2015    .43  0.00 
119 1260 Pankaj Kumar Koli 2014-Aksh-BHARATPUR RAJEEV GNADHI SEVA KENDRA  AKHAIGAR NADBAI BHARATPUR   9785196307  30  Active  09-01-2015    641.13  57.39 
120 1265 Satyendra Singh 2014-Aksh-BHARATPUR VEAR HOUSE ROAD NEAR POST  OFFICE, NADABI BHARATPUR   9875200277  640  Active  10-01-2015    290.8  19.13 
121 1266 Rajkumari Rajora 2014-Aksh-BHARATPUR COMPUTECH COMPUTER CENTER  NEAR KHADHI A SHARAM WEIR DIST BHARATPUR  9001733488  1248  Active  10-01-2015    165.51  0.00 
122 1267 Pavan Kumar 2014-Aksh-BHARATPUR ANHA GATE BAJARIYA BHARATPUR    9414000016  1228  Active  10-01-2015    1667.65  38.26 
123 1271 Azad Khan 2014-Aksh-BHARATPUR TESHIL CAMPUS NAGAR BHARATPUR    9887712794  49  Active  16-01-2015    80.24  0.00 
124 1281 JIYA RAHMAN 2014-Aksh-BHARATPUR Jiya rahaman emitra center babu bazar Bhartpur   9829753722  10  Active  20-01-2015    379.07  539.48 
125 1282 Ashok Kumar Sharma 2014-Aksh-BHARATPUR MAIN MARKET NEAR POLICE CHOKI DEEG BHARATPUR    9351329943  221  Active  20-01-2015    .35  0.00 
126 1311 Radha Kumari 2014-Aksh-BHARATPUR VILLAGE BANSI PHADPUR TEHSIL RUPBAS BHARATPUR RAJASTHAN    9875003256  47  Active  28-01-2015    .76  0.00 
127 1316 Dinesh Chand 2014-Aksh-BHARATPUR ATAL SEWA KENDRA JAGHINA SEWAR BHARATPUR RAJASTHAN    9784114403  Active  29-01-2015    .3  0.00 
128 1317 Bholu Ram Sharma 2014-Aksh-BHARATPUR ATAL SEWA KENDRA AKTA BHARATPUR RAJASTHAN    8058200671  Active  29-01-2015    .12  0.00 
129 1332 Praveen Kumar 2014-Aksh-BHARATPUR ATAL SAMPARK KENDRA USRANI KUMHER BHARATPUR RAJASTHAN    9785506082  1228  Active  03-02-2015    454.7  107.13 
130 1338 Laxmi Narayan Yadav 2014-Aksh-BHARATPUR 129 DEEWKAMAN BHARATPUR RAJASTHANAN MOHALLA  KAMAN BHARATPUR RAJASTHAN   9660975900  368  Active  04-02-2015    287.48  26.78 
131 1341 Sanjay Kumar Saini 2014-Aksh-BHARATPUR OUT SIDE SOORAJPOL GATE BHARATPUR RAJASTHAN    9529192492  Active  04-02-2015    .4  0.00 
132 1378 Veerendra Kumar 2014-Aksh-BHARATPUR VPO KALSARA TEH BAYANA BHARATPUR RAJASTHAN    9783335317  Active  09-02-2015    .82  0.00 
133 1389 Rajesh Kumar 2014-Aksh-BHARATPUR KUMHER ROAD NADBAI BHARATPUR RAJASTHAN    9782848895  Active  18-02-2015    .26  0.00 
134 1391 Varish 2014-Aksh-BHARATPUR RAJEEV GANDHI KENDRA  GULPARA NAGAR BHARATPUR RAJASTHAN   9772003536  Active  18-02-2015    .48  0.00 
135 1392 Mausam Khan 2014-Aksh-BHARATPUR RAJEEV GANDHI Kendra Samler Pahari Nagar Bharatpur Rajasthan    8094101616  Active  18-02-2015    .65  0.00 
136 1394 Krishan Murari 2014-Aksh-BHARATPUR MADHUR COMPUTERS ANAH GATE BHARATPUR RAJASTHAN    9414376540  Active  18-02-2015    68.49  0.00 
137 1395 Shyam Sundar 2014-Aksh-BHARATPUR KISHORI PAYASA MOHALLA KAMAN BHARATPUR RAJASTHAN    8290431006  Active  18-02-2015    .2  0.00 
138 1425 Umesh Chand 2014-Aksh-BHARATPUR ATAL SEWA KENDRA MATUKI TEH. KAMAN DIST BHARATPUR RAJASTHAN    9828130014  183  Active  27-02-2015    58.44  0.00 
139 1428 Anil Kumar Sharma 2014-Aksh-BHARATPUR KAMLA ROAD BASAN GATE BHARATPURRAJASTHAN    9782505905  Active  02-03-2015    .89  0.00 
140 1429 Jagdish Prasad Sharma 2014-Aksh-BHARATPUR NEAR GIRLSSCHOOL PAHARI ROAD KAMAN BHARATPUR RAJASTHAN    05640251351  Active  02-03-2015    174.01  0.00 
141 1431 Bharat Singh 2014-Aksh-BHARATPUR ATAL SEWA KENDRA SIRAS TEH. WEIR DIST BHARATPUR RAJASTHAN    9660347923  Active  02-03-2015    .88  0.00 
142 1433 Daulat Singh 2014-Aksh-BHARATPUR BRIJ NAGAR BHARATPUR RAJASTHAN    9667844838  Active  02-03-2015    .43  0.00 
143 1443 Dharmendra Singh 2014-Aksh-BHARATPUR ATAL SEWA KENDRA DAURDA TEHSIL ROOPWAS Bharatpur    9587363073  Active  03-03-2015    1353.42  0.00 
144 1444 Brij Mohan 2014-Aksh-BHARATPUR ATAL SAMPARK KENDRA KHOH DEEG Bharatpur    9887685567  Active  03-03-2015    .93  0.00 
145 1451 Aksh Optifibre Limited 2014-Aksh-BHARATPUR BAYANA, PHARASO District- BHARATPUR (Rajasthan    9414377104  Active  11-03-2015    .41  0.00 
146 1452 Omprakash 2014-Aksh-BHARATPUR BANSI KALAN BUS STAND Teh Sewar Dist Bharatpur Rajasthan    9887493560  376  Active  11-03-2015    .8  19.13 
147 1455 Yahaya 2014-Aksh-BHARATPUR ATAL SEWA KENDRA NOGAWAN BAMNI TEH KAMAN BHARATPUR RAJASTHAN    9828412828  Active  13-03-2015    .35  0.00 
148 1459 Kuldeep Singh 2014-Aksh-BHARATPUR ATAL SEWA KENDRA GANGROLI TEH. WEIR DIST BHARATPUR    9667234914  Active  16-03-2015    .73  0.00 
149 1465 Jagdish Singh 2014-Aksh-BHARATPUR ATAL SEWA KENDRA CHICHANA    7691036392  Active  19-03-2015    -1561.72  0.00 
150 1466 Nyaj Mohammad 2014-Aksh-BHARATPUR Nagar,Fatehpur Kala Fatehpur Kala   9549890604  Active  19-03-2015    37.17  0.00 
151 1467 Deepak Singh 2014-Aksh-BHARATPUR ATAL SEWA KENDRA JALALAPUR TEH. NAGAR BHARATPUR    9928319699  355  Active  19-03-2015    25.37  0.00 
152 1468 Babu Lal 2014-Aksh-BHARATPUR Atal Sewa Kendra,Sihawali Nagar   8239112676  Active  19-03-2015    .12  0.00 
153 1469 Naresh Kumar Dhadoriya 2014-Aksh-BHARATPUR ATAL SEWA KENDRA ANDHIYARI TEH. RUPBAS Bharatpur    8058984002  60  Active  19-03-2015    185.02  76.52 
154 1470 Neeraj 2014-Aksh-BHARATPUR ATAL SEWA KENDRA SONGAWN TEH.DEEG    8058222137  88  Active  19-03-2015    686.16  0.00 
155 1472 Aksh Optifibre Limited 2014-Aksh-BHARATPUR A.En Office,Old Power House Bharatpur   9887877254  Active  20-03-2015    .04  0.00 
156 1478 Lakhan Singh 2014-Aksh-BHARATPUR ATAL SEWA KENDRA BADANGARH TEH. DEEG BHARATPUR    9982665647  Active  23-03-2015    .25  0.00 
157 1505 Pushapendra Kumar Sharma 2014-Aksh-BHARATPUR ATAL SEWA KENDRA PICHUNA     9694806607  Active  25-03-2015    455.14  0.00 
158 1506 Brijmohan Singh Maggo 2014-Aksh-BHARATPUR ANAH GATE BAJARIYA BHARATPUR Rajasthan    7615801777  Active  25-03-2015    -149.86  0.00 
159 1507 Gurmeet Singh 2014-Aksh-BHARATPUR WARD N0 24 GOLBAG ROAD MATHURA GATE BHARATPUR    9587000115  49  Active  25-03-2015    191.52  33.48 
160 1508 Ajeet Singh 2014-Aksh-BHARATPUR ATAL SEWA KENDRA PATHENA THE. WEIR BHARATPUR RAJASTHAN    9887515038  61  Active  25-03-2015    7.99  0.00 
161 1509 Vishnu Kumar Gupta 2014-Aksh-BHARATPUR ATAL SEVA KENDRA RARAH    9950780243  1393  Active  25-03-2015    .06  72.70 
162 1510 Radhe Shyam Rajpoot 2014-Aksh-BHARATPUR ATAL SEWA KENDRA GOGERA TEH .BHUSAWAR    9413837008  163  Active  25-03-2015    72.56  0.00 
163 1798 Lokesh Kumar 2014-Aksh-BHARATPUR ATAL SEWA KENDRA KHESTI    9024062105  14  Active  06-04-2015    660.45  0.00 
164 1799 Harnam Singh 2014-Aksh-BHARATPUR ATAL SEWA KENDRA SADHPURI TEH. NAGAR    8502807926  4205  Active  06-04-2015    2954.63  0.00 
165 1819 Harmeet Singh 2014-Aksh-BHARATPUR ATAL SEWA KENDRA BASBURJA TEH. NAGAR Bharatpur    8426020062  2916  Active  11-04-2015    6441.24  0.00 
166 1822 Yashwant Singh 2014-Aksh-BHARATPUR VILLAGE POST PATHENA BABEKHAR TEH.BHUSAWAR BHARATPUR    9413027496  15  Active  11-04-2015    135.94  57.39 
167 1823 Gaurav Agrawal 2014-Aksh-BHARATPUR 29 STC HOUSING BOARD COLONEY BHARATPUR    9680399300  Active  11-04-2015    42.72  0.00 
168 1824 Veerendra Singh 2014-Aksh-BHARATPUR POST GOPALGARH THESIL PAHARI Bharatpur    9461623407  1201  Active  11-04-2015    45.7  0.00 
169 1826 Tufail Khan 2014-Aksh-BHARATPUR ATAL SEWAKENDRA GHOSINGA TEH. PAHARI    8058533192  394  Active  11-04-2015    1652.65  0.00 
170 1828 Khem Singh 2014-Aksh-BHARATPUR ATAL SEWA KENDRA ODELGADDI TEH,RUPWAS    9672333434  300  Active  11-04-2015    121.61  0.00 
171 1829 Chandra Sekhar Sharma 2014-Aksh-BHARATPUR ATAL SEWA KENDRA SHEESHWADA TEH. DEEG    9672327226  Active  11-04-2015    219.86  0.00 
172 1830 Yashpal Singh 2014-Aksh-BHARATPUR ATAL SEWA KENDRA SALEMPUR KALAN TEH.BHUSAWAR    7891508503  Active  11-04-2015    .71  0.00 
173 1879 Harish Chand 2014-Aksh-BHARATPUR SURAJ BAGH COLONY KAMAN BHARATPUR    9460963151  Active  15-04-2015    .89  0.00 
174 1924 Pavan Kumar 2014-Aksh-BHARATPUR ATAL SEWA KENDRA MAHMADPURA THE. BAYANA Bharatpur Rajasthan    9785300376  80  Active  17-04-2015    35.86  0.00 
175 1936 Nadeem 2014-Aksh-BHARATPUR ANAJ MANDI KE SAMNE  KOSI ROAD KAMAN Bharatpur   9001409058  Active  17-04-2015    .16  0.00 
176 1938 Santosh Kumar 2014-Aksh-BHARATPUR NERA DURGA TEMPLE RANJEET  NAGAR BHARATPUR   9887039878  1240  Active  17-04-2015    755.02  0.00 
177 1940 Mukesh Saini 2014-Aksh-BHARATPUR NAGAR ROAD, DEEG Bharatpur Rajasthan    9636585941  610  Active  17-04-2015    38.35  122.43 
178 1944 Raghvendra Sharma 2014-Aksh-BHARATPUR RADHA KRISHNA MANDIR WALI GALI B- NARAYAN GATE BHARATPUR     9828856009  Active  18-04-2015    292.46  0.00 
179 1945 Mukesh Chand 2014-Aksh-BHARATPUR IN FRONT OF NAGAR PALIKA NADBAI BHARATPUR RAJASTHAN     9887963208  1462  Active  18-04-2015    .46  0.00 
180 1946 Lakhan Singh 2014-Aksh-BHARATPUR PADAM VIHAR COLONY SEWAR ROAD BHARATPUR    9468681247  Active  18-04-2015    .62  0.00 
181 1949 Raju Singh 2014-Aksh-BHARATPUR 52, JATAV MOHALLA SADPURI THE. NAGAR Bharatpur Rajasthan    8094133729  422  Active  18-04-2015    48.8  38.26 
182 1950 Mukesh Chand Sharma 2014-Aksh-BHARATPUR RADHA SWAMI SCHOOL KE SAMNE KHERLI  ROAD NAGAR BHARATPUR   9460646954  Active  18-04-2015    722.26  0.00 
183 1964 Vinod Kumar Sharma 2014-Aksh-BHARATPUR MAIN MARKET SEWAR BHARATPUR    9649644179  181  Active  22-04-2015    12.77  0.00 
184 2014 Mousam 2014-Aksh-BHARATPUR ATAL SEVA KENDRA DHAULET TEH PAHARI    9887812410  Active  29-04-2015    96.84  0.00 
185 2017 Jal Singh 2014-Aksh-BHARATPUR KHERLI GADASIYA TEH. BAYANA Bharatpur    9784913377  Active  29-04-2015    774.71  119.57 
186 2031 Yashpal Singh 2014-Aksh-BHARATPUR ATAL SEWA KENDRA ,BACHHRAIN TEH. WEIR BHARATPUR.    9680771458  Active  30-04-2015    -717.17  0.00 
187 2035 Vikram Singh 2014-Aksh-BHARATPUR ATAL SEWA KENDRA BARAI THE.DEEG, Bharatpur    9680467064  Active  30-04-2015    .09  0.00 
188 2038 Ijhar 2014-Aksh-BHARATPUR ATAL SEWA KENDRA DHOULET THE. PAHARI Bharatpur    8058657171  1560  Active  30-04-2015    184.76  0.00 
189 2040 Ved Prakash 2014-Aksh-BHARATPUR ATAL SEWA KENDRA TERHIYA THE.RUPWAS BHARATPUR    05648277021  Active  30-04-2015    .68  0.00 
190 2041 Ramveer Singh 2014-Aksh-BHARATPUR ATAL SEWA KENDRA BARSO BHARATPUR    9887493642  Active  30-04-2015    .85  0.00 
191 2043 Pushpendra Kumar 2014-Aksh-BHARATPUR PUSHPENDRA EMITRA CENTRE GOPALGARH BHARATPUR RAJASTHAN    9413303160  Active  30-04-2015    -13.2  0.00 
192 2046 Rinku Kumar Rawat 2014-Aksh-BHARATPUR MOROLI DAHAR TEH. RUPWAS, Bharatpur    9927130712  Active  30-04-2015    .92  0.00 
193 2048 Ashok Kumar 2014-Aksh-BHARATPUR 135, RUNDHIYA NAGAR NEAR GIRRAJ KENAL BHARATPUR Rajasthan    9828370901  2780  Active  01-05-2015    1386.01  26.78 
194 2059 Hemant Kumar Sharma 2014-Aksh-BHARATPUR PURABAI KHERA TEH. BAYANA DIST BHARATPUR    9772739816  588  Active  04-05-2015    5495.35  0.00 
195 2070 Rajpal Yadav 2014-Aksh-BHARATPUR KALYAN MOHALLA KAMAN BHARATPUR RAJASTHAN    8058657957  Active  05-05-2015    .37  0.00 
196 2071 Khem Singh 2014-Aksh-BHARATPUR ATAL SEWA KENDRA SALABAD THE. BAYANA    9887368362  Active  05-05-2015    -32.57  0.00 
197 2072 Subham Khandelwal 2014-Aksh-BHARATPUR PAWAN KUNJ COLONY WARD N024 KAMAN Bharatpur Rajasthan    8387872670  98  Active  05-05-2015    73.82  0.00 
198 2073 Pankaj Kumar 2014-Aksh-BHARATPUR GOPALGARH PAHARI BHARATPUR RAJASTHAN    9828551252  Active  05-05-2015    -80.94  0.00 
199 2096 Arun Singh 2014-Aksh-BHARATPUR ATAL SEWA KENRDAR NEWARA THE. WEIR BHARATPUR RAJASTHAN    9001686769  Active  06-05-2015    .56  0.00 
200 2098 Shree Ram 2014-Aksh-BHARATPUR ATAL SEWA KENDRA SABORA THE. KUMHER Bharatpur Rajasthan    9929169030  313  Active  06-05-2015    886.05  0.00 
201 2099 Radharaman Sharma 2014-Aksh-BHARATPUR ATAL SEWA KENDRA PARAUA THE.RUPWAS Bharatpur Rajasthan    9887196436  -55  Active  06-05-2015    .06  0.00 
202 2100 Gopal Prasad 2014-Aksh-BHARATPUR ATAL SEWA KENDRA GOVINDPURA WEIR BHARATPUR RAJASTHAN    8696367636  649  Active  06-05-2015    430.45  0.00 
203 2132 Bhupendra Singh 2014-Aksh-BHARATPUR DEEP COMPUTER CENTRE PAHUA THE. KUMHER, Bharatpur    9828815751  63  Active  14-05-2015    232.46  26.78 
204 2133 Pankaj Agarwal 2014-Aksh-BHARATPUR PURANI ANAJ MANDI WEIR Bharatpur Rajasthan    9461966250  Active  14-05-2015    25.66  0.00 
205 2135 Anil Kumar 2014-Aksh-BHARATPUR ATAL SEWA KENDRA BIDIYARI TEH. BAYANA BHARATPUR RAJASTHAN    9414226716  Active  14-05-2015    .38  0.00 
206 2144 Roopkishor Yadav 2014-Aksh-BHARATPUR Atal Seva Kendra Berro Nagar Bharatpur Rajasthan    9799180017  Active  20-05-2015    .27  0.00 
207 2145 Surjeet Singh 2014-Aksh-BHARATPUR ATAL SEWA KENDRA SAHSAN THE. PAHARI BHARATPUR RAJASTHAN    8441058009  645  Active  20-05-2015    .23  0.00 
208 2146 Fareed Khan 2014-Aksh-BHARATPUR 115 JATAV MOHALLA MUDIYA THE. NAGAR BHARATPUR RAJASTHAN    9587727320  Active  20-05-2015    3.72  0.00 
209 2147 Akhlesh Kumar Sharma 2014-Aksh-BHARATPUR ATAL SEWA KENDRA JAGGIVANPUR THE. WEIR BHARATPUR RAJASTHAN    9950251165  Active  20-05-2015    .67  0.00 
210 2164 Arun Kumar 2014-Aksh-BHARATPUR INFRONT OF PNB BANK DEEG ROAD BHARATPUR Rajasthan    9887887202  62  Active  26-05-2015    196.62  19.13 
211 2168 Rajkumar 2014-Aksh-BHARATPUR Gram Panchayat LAKHAN THESILKUMHER, Bharatpur    9983684578  60  Active  26-05-2015    .16  0.00 
212 2174 Amit Chawla 2014-Aksh-BHARATPUR INFRONT OF SDM COURT KAMAN BHARATPUR RAJASTHAN    9610376376  Active  27-05-2015    482.46  0.00 
213 2176 Bhupendra Kumar Dixit 2014-Aksh-BHARATPUR GANDHI NAGAR ROAD SEWAR ROAD BHARATPUR RAJASTHAN    9887503135  260  Active  27-05-2015    148.58  0.00 
214 2258 Balram Yadav 2014-Aksh-BHARATPUR CHURI BAZAR TEH. NAGAR BHARATPUR    9352777935  19  Active  10-06-2015    94.46  0.00 
215 2261 Iliyas Khan 2014-Aksh-BHARATPUR ATAL SEWA KENDRA TODA THESIL DEEG    9772391011  368  Active  10-06-2015    275.71  0.00 
216 2290 Samsuddin 2014-Aksh-BHARATPUR Viil- Jhantli Teh. Nagar Dist. Bhartpur Rajasthan    7665913436  Active  18-06-2015    .34  0.00 
217 2302 Dharm Singh 2014-Aksh-BHARATPUR SUNDRAWALI THESIL NAGAR BHARATPUR RAJASTHAN    9887586072  Active  20-06-2015    .04  0.00 
218 2304 Chet Ram 2014-Aksh-BHARATPUR NEAR BUS STAND KHOH TEHSIL DEEG BHARATPUR    9928272289  121  Active  20-06-2015    737.18  0.00 
219 2306 Ramavatar 2014-Aksh-BHARATPUR KHORKI ROAD TEHSIL NAGAR BHARATPUR RAJASTHAN    9571765235  Active  20-06-2015    -149.03  0.00 
220 2307 Santosh Kumar 2014-Aksh-BHARATPUR MAIN MARKET SEWAR BHARATPUR RAJASTHAN    9887002180  346  Active  20-06-2015    .75  38.26 
221 2308 Arun Kumar Jain 2014-Aksh-BHARATPUR BUDH KI HAAT BHARATPUR    9782505757  Active  20-06-2015    1167.39  0.00 
222 2309 Meghraj 2014-Aksh-BHARATPUR NEAR SDM OFFICE BHUS AWAR BHARATPUR RAJASTHAN   8094670022  4617  Active  20-06-2015    .34  284.09 
223 2314 Sanju Sharma 2014-Aksh-BHARATPUR PAI BAGH, BHARATPUR    9461867091  166  Active  27-06-2015    .04  57.39 
224 2327 Babli Arya 2014-Aksh-BHARATPUR SAINI MOHALLA KUMHER GATE BHARATPUR RAJASTHAN    8003230758  Active  03-07-2015    .9  0.00 
225 2363 Lokesh Kumar Sharma 2014-Aksh-BHARATPUR NEAR SBI BANK , HINDOUN ROAD   BHUSAWAR , BHARATPUR RAJASTHAN undefined  8058681832  1578  Active  24-07-2015    791.14  76.52 
226 2370 Akeel Ahmed 2014-Aksh-BHARATPUR Tehsil CampusNagar,Bharatpur    9982090666  1135  Active  24-07-2015    387.96  352.00 
227 2374 Vishesh Kumar Sharma 2014-Aksh-BHARATPUR NEAR BHUMIYA BURJ GOPINAAT MAUHLLA KAMAN BHARATPUR RAJASTHAN    7891868653  82  Active  24-07-2015    195.9  0.00 
228 2375 Narendra 2014-Aksh-BHARATPUR MAIN ROAD UCCHAIN THESIL RUPBAS BHARATPUR RAJASTHAN    8952963617  330  Active  24-07-2015    591.77  0.00 
229 2393 Rakesh Kumar Garg 2014-Aksh-BHARATPUR D-26 SHOPING CENTER JAWAHAR NAGAR  BHARATPUR RAJASTHAN  9352777798  Active  04-08-2015    71.29  52.61 
230 2396 Yuvraj 2014-Aksh-BHARATPUR Village & Psot Ajau The. Kumher Bharatpur Rajasthan    8058220778  45  Active  05-08-2015    16.75  0.00 
231 2397 Mukand Bihari 2014-Aksh-BHARATPUR CITY SCHOOL KE PASS BAPU BAZAR NAGAR BHARATPUR RAJASTHAN    9024564343  Active  05-08-2015    -148.94  0.00 
232 2399 Ramesh Chand Jha 2014-Aksh-BHARATPUR NEEM KA NEECHE GUD KI MANDI KUMHER BHARATPUR RAJASTHAN    9782514178  29  Active  05-08-2015    3978.43  0.00 
233 2430 Pawan Kumar 2014-Aksh-BHARATPUR ATAL SEWA KENDRA KURKA THE. RUPBAS BHARATPUR    9785135761  1170  Active  10-08-2015    31.06  0.00 
234 2432 Ram Ratan Kaushik 2014-Aksh-BHARATPUR EMPLOYEMENT OFFICE BHARATPUR RAJASTHAN    9672900243  75  Active  10-08-2015    1897.85  0.00 
235 2467 Rakesh Tiwari 2014-Aksh-BHARATPUR SAUNALI EMITRA CENTRE BRAHMAWAD THESIL BAYANA BHARATPUR RAJASTHAN    8003603730  379  Active  27-08-2015    1073.73  0.00 
236 2496 Subhash Singh 2014-Aksh-BHARATPUR ATAL SEWA CENTRE MADARPUR BHARATPUR RAJASTHAN    9001004584  11  Active  01-09-2015    1793.63  38.26 
237 2500 Praveen Kumar Jangid 2014-Aksh-BHARATPUR MAINAPURA THESIL BHUSAWAR WEIR BHARATPUR RAJASTHAN    8058947094  100  Active  03-09-2015    86.48  0.00 
238 2501 Bhagawan Swaroop Pandey 2014-Aksh-BHARATPUR ATAL SEWA KENDRA WEIR BHARATPUR RAJASTHAN    8829834999  234  Active  03-09-2015    1072.21  0.00 
239 2516 Vijay Singh 2014-Aksh-BHARATPUR VIJAY E-MITRA NEAR MAIN GATE THANA NADBAI BHARATPUR    9782319241  1612  Active  11-09-2015    534.19  91.83 
240 2519 Rajesh Singh 2014-Aksh-BHARATPUR RAJESH EMITRA CENTRE BHUSAWAR BHARATPUR RAJASTHAN    9667230074  10  Active  11-09-2015    17.71  0.00 
241 2525 Aksh Optifibre Limited 2014-Aksh-BHARATPUR A.EN. OFFICE (O&M), BAYANA BHARATPUR    9414485885  10  Active  16-09-2015    15.04  0.00 
242 2526 Jagveer Singh 2014-Aksh-BHARATPUR PARUL EMITRACENTRE KATARA NADBAI BHARATPUR RAJASTHAN    8384961669  170  Active  17-09-2015    16.43  0.00 
243 2528 Bhuvnesh Katara 2014-Aksh-BHARATPUR Dahina Ganv, GP Dahina Ganv, PS Roopwas    8432325507  26  Active  18-09-2015    6.78  0.00 
244 2531 Vipin Kumar Jain 2014-Aksh-BHARATPUR SARAFA BAZAR JUREHRA TEH.- KAMA DIST.- BHARATPUR RAJASTHAN    9414716155  1450  Active  29-09-2015    307.43  214.26 
245 2552 Krishna Kant 2014-Aksh-BHARATPUR KRISHI TAYARS KE PASS DEEG ROAD BHARATPUR    9024281316  292  Active  01-10-2015    695.89  0.00 
246 2582 Yogesh Kumar 2014-Aksh-BHARATPUR SABLANA TEHSIL KAMAN BHARATPUR RAJASTHAN    9057464748  1906  Active  14-10-2015    6.79  0.00 
247 2583 Sushila Agrawal 2014-Aksh-BHARATPUR COURT CAMPAS BHARATPUR RAJASTHAN    9461033105  489  Active  14-10-2015    1221.29  994.78 
248 2588 Dal Chand 2014-Aksh-BHARATPUR NEAR PANCHYAT KE PASS SIKRI BHARATPUR RAJASTHAN    9672135624  185  Active  16-10-2015    1496.51  0.00 
249 2589 Bhoori Singh 2014-Aksh-BHARATPUR MUDHERA ROOPWAS BHARATPUR    9610041014  Active  17-10-2015    .77  0.00 
250 2601 Kavishwar Kant 2014-Aksh-BHARATPUR DEVRAJ EMITRA COMPUTER CENTRE MATHURA JAIPUR BAIPASS BHARATPUR    8386909066  Active  28-10-2015    19.26  0.00 
251 2602 Mohan Swroop Sharma 2014-Aksh-BHARATPUR INFRONT OF GURUKULSCHOOL NADBAI BHARATPUR    8559856204  11  Active  28-10-2015    18.47  0.00 
252 2603 Deepak Garg 2014-Aksh-BHARATPUR MAIN MARKET ROOPWAS BHARATPUR RAJASTHAN    9549786858  538  Active  28-10-2015    402.96  214.26 
253 2605 Hemant Kumar Jain 2014-Aksh-BHARATPUR NEAR HANUMAN MANDIR GOPALGARH BHARATPUR    9667004985  221  Active  28-10-2015    163.53  45.91 
254 2613 Avinesh Garg 2014-Aksh-BHARATPUR B- 93 SUBHASH NAGAR BHARATPUR    9694545963  1265  Active  02-11-2015    189.78  0.00 
255 2638 Lokesh Baswada 2014-Aksh-BHARATPUR MSJ COLLAGE KE SAMNE BHARATPUR    9636841153  125  Active  07-11-2015    -.84  0.00 
256 2720 Artee Kumari 2014-Aksh-BHARATPUR GAYATRI PHOTO STATE COLLECTRECT ROAD BHARATPUR    7742507865  69  Active  09-12-2015    .44  0.00 
257 2722 Praveen Kumar 2014-Aksh-BHARATPUR PRAVEEN E-MITRA NEW PUSHPVATIKA COLONY BHARATPUR    9414980248  Active  09-12-2015    13.07  0.00 
258 2724 Neeraj Saini 2014-Aksh-BHARATPUR KRISHNA E-MITRA SURAJPOLE GATE BHARATPUR    7733869060  28  Active  09-12-2015    190.55  76.52 
259 2749 Kamal Dass 2014-Aksh-BHARATPUR INDRA NAGAR NALE KE PASS BHARATPUR    9785180936  Active  19-12-2015    293.1  0.00 
260 2753 Peetam Singh Saini 2014-Aksh-BHARATPUR BHARTI EMITRA CENTRE NEAR TEHSIL BHUSAWAR BHARATPUR    8502805851  20  Active  22-12-2015    5305.95  516.52 
261 2789 Dilawer Khan 2014-Aksh-BHARATPUR KHERLI GUMANI TEH. KAMAN DIST.- BHARATPUR RAJASTHAN    8502079191  Active  05-01-2016    1644.16  0.00 
262 2810 Hakim Singh 2014-Aksh-BHARATPUR Atal Sewa Kendra Lahachorakalan Bayana Bharatpur    9057616307  Active  06-01-2016    199.47  0.00 
263 2811 Ravi Katheriya 2014-Aksh-BHARATPUR Saksham E-Mitra Centre, Jaghina Gate  Gopal Garh, Bharatpur undefined  7062452805  17  Active  06-01-2016    155.2  0.00 
264 2812 Vishnu Sharma 2014-Aksh-BHARATPUR LAVANIYA E-MITRA CENTRE, SEWAR FORT KE SAMENE  SEWARVROAD, BHARATPUR undefined  8947921593  258  Active  06-01-2016    .06  72.70 
265 2814 Jeetendra Singh 2014-Aksh-BHARATPUR OM - SHAI E-MITRA CENTRE, V- RARAH  TEH. - KUMHER, BHARATPUR undefined  9680990299  987  Active  06-01-2016    260.37  53.57 
266 2815 Prasoon Singhal 2014-Aksh-BHARATPUR BAUJI TELECOME & E-MITRA CENTRE SURAJPOLE CHAURAHA GOPAL GARH , BHARATPUR    8559826434  Active  06-01-2016    0.00 
267 2885 Neeraj Kumar 2014-Aksh-BHARATPUR BAROLICHHAR TEH. NADBAI (PAY POINT)Bharatpur     9660985921  Active  30-01-2016    30.64  0.00 
268 2922 Soop Ram Jatav 2014-Aksh-BHARATPUR Paypoint PASOPA Deegbharatpur     9001596884  Active  04-02-2016    1.9  0.00 
269 2923 Naresh Kumar 2014-Aksh-BHARATPUR Paypoint BELARA KALA TEHSIL KUMHER Bharatpur     9413995932  Active  04-02-2016    17.69  0.00 
270 2924 Ram Singh 2014-Aksh-BHARATPUR CHULERA TEHSIL DEEG Bharatpur     8503085433  Active  04-02-2016    .95  0.00 
271 2927 Narendra Singh 2014-Aksh-BHARATPUR Pay Point BEDHAM TEHSIL DEEG Bharatpur     8561067043  Active  04-02-2016    0.00 
272 2932 Taiyyab Khan 2014-Aksh-BHARATPUR NEAR MASJID, GARHI MEWAT  BEDHAM, BHARATUR undefined  9610299014  Active  04-02-2016    1.85  0.00 
273 2934 Pramod Kumar 2014-Aksh-BHARATPUR VILLAGE - GIRSE, TEHSIL - DEEG  BHARATPUR   9950101060  Active  04-02-2016    .84  0.00 
274 2949 Ravi Lawaniya 2014-Aksh-BHARATPUR GOVERDHAN GATE, BHARATPUR    9667420119  Active  05-02-2016    173.93  0.00 
275 2959 Vipin Bansal 2014-Aksh-BHARATPUR Paypoint KHERIA PUROHIT SONGAON DEEG BHARATPUR    9024484998  Active  09-02-2016    0.00 
276 2960 Jeetendra Kumar 2014-Aksh-BHARATPUR Pay Point Shripur,Deeg Bharatpur    8058334322  Active  09-02-2016    113.94  0.00 
277 2961 Dhanesh Kumar 2014-Aksh-BHARATPUR EMITRA PAYPOINT SINSINI, BHARATPUR    9983301011  Active  09-02-2016    0.00 
278 2962 Surendra Singh 2014-Aksh-BHARATPUR EMITRA PAYPOINT KHEMRA BHARATPUR    9828434242  Active  09-02-2016    0.00 
279 2963 Baboo Lal 2014-Aksh-BHARATPUR EMITRA PAYPOINT UMRA, DEEG  BHARATPUR    9460740002  Active  09-02-2016    2.95  0.00 
280 2964 Ajay Singh 2014-Aksh-BHARATPUR EMITRA PAYPOINT SUKHAWALI, BHARATPUR    9414718383  Active  09-02-2016    0.00 
281 2965 Rinku Kumar 2014-Aksh-BHARATPUR EMITRA PAYPOINT VILLAGE - TUHIYA, TYONGA  BHARATPUR   8058561420  Active  09-02-2016    0.00 
282 2966 Asjad Khan 2014-Aksh-BHARATPUR Emitra Paypoint BHUAPUR GARHI TEHSIL NAGAR Bharatpur     9529709046  Active  09-02-2016    0.00 
283 2967 Manoj Kumar Saini 2014-Aksh-BHARATPUR EMITRA PAYPOINT SAINI MOHALLA, BEWAR  HALENA, BHARATPUR undefined  9660253382  Active  09-02-2016    0.00 
284 2968 Rajesh Kumar Gupta 2014-Aksh-BHARATPUR EMITRA PAYPOINT VILLAGE - AJROUNDA, TEHSIL - WEIR  BHARATPUR    8290136831  Active  09-02-2016    .95  0.00 
285 2969 Sushil Kumar 2014-Aksh-BHARATPUR EMITRA PAYPOINT BANI KUMHAR, BHARATPUR     9587999024  Active  09-02-2016    0.00 
286 2970 Pramod Kumar Sharma 2014-Aksh-BHARATPUR EMITRA Paypoint BAI,WEIR  BHARATPUR   9414526914  Active  09-02-2016    4.96  0.00 
287 2971 Brijesh Kumar 2014-Aksh-BHARATPUR EMITRA PAYPOINT KUTAKPUR, CHIRAWALMALI  NAGAR, BHARATPUR  undefined  8058976432  Active  09-02-2016    0.00 
288 2972 Gopal Prasad 2014-Aksh-BHARATPUR EMITRA PAYPOINT GOVINDPURA GP MUHARI THE. WEIR Bharatpur     8696367635  Active  09-02-2016    8.24  0.00 
289 2973 Jaswant Singh 2014-Aksh-BHARATPUR EMITRA PAYPOINT KASODA GP MADAHONI THE. BHARATPUR    9001649139  Active  09-02-2016    .97  0.00 
290 2974 Kuldep Singh 2014-Aksh-BHARATPUR EMITRA PAYPOINT GANGROLI POST HISHAMDA TEH WEIR Bharatpur     9667234915  Active  09-02-2016    18.47  0.00 
291 2975 Bharat Singh 2014-Aksh-BHARATPUR EMITRA PAYPOINT NAHREPUR GP SIRAS TEHSIL WEIR BHARATPUR    9660347922  Active  09-02-2016    50.44  0.00 
292 2976 Manoj Kumar 2014-Aksh-BHARATPUR EMITRA PAYOINT SHYAMDHAK, BAROLI CHAUTH  DEEG, BHARATPUR undefined  9413309325  Active  09-02-2016    0.00 
293 2977 Hariom 2014-Aksh-BHARATPUR EMITRA PAYPOINT GUHANA, DEEG  BHARATPUR   9414449940  Active  09-02-2016    0.00 
294 2978 Sumit Singh 2014-Aksh-BHARATPUR EMITRA PAYPOINT Bahnera Sewar Bharatpur     7297895400  Active  09-02-2016    61.78  0.00 
295 2979 Vipin Kumar 2014-Aksh-BHARATPUR EMITRA PAYPOINT SEHU GP PADMADRA TEH. DEEG Bharatpur     9694805536  Active  09-02-2016    .95  0.00 
296 2980 Nagendra Singh 2014-Aksh-BHARATPUR EMITRA PAYPOINT NARENA CHOTH GP PASTA TEH. DEEG Bharatpur     9785350540  Active  09-02-2016    .95  0.00 
297 2981 Kehar Singh 2014-Aksh-BHARATPUR EMITRA PAYPOINT SHAYPUR GP BARAI TEH. DEEG Bharatpur     9887327743  Active  09-02-2016    .84  0.00 
298 2986 Indrajeet Boudh 2014-Aksh-BHARATPUR EMITRA PAYPOINT JHEETREDI  GP SEMLA KALAN TEH. NAGAR Bharatpur    7891847732  Active  09-02-2016    0.00 
299 2987 Nem Singh 2014-Aksh-BHARATPUR EMITRA PAYPOINT  PIRAKA GP SAIMLAKALAN TEH. NAGAR Bharatpur    9024459580  Active  09-02-2016    1.79  0.00 
300 2988 Prem Prakash 2014-Aksh-BHARATPUR POOLICE THANE KE GATE KE PASS TEHSIL NADBAI Bharatpur    8947841512  795  Active  10-02-2016    381.49  19.13 
301 2990 Sonu Bansal 2014-Aksh-BHARATPUR VILLAGE And POST - SABORA, TEHSIL - KUMHER  DISTRICT- BHARATPUR   9785537341  180  Active  10-02-2016    60.63  0.00 
302 2992 Vinod Kumar Agrawal 2014-Aksh-BHARATPUR UNCLE G EMITRA A-93RANJEET NAGAR BHARATPUR    9413113575  Active  10-02-2016    4.27  0.00 
303 2993 Kshitij Singh 2014-Aksh-BHARATPUR EMITRA Paypoint MADARPUR, CHIKSANA  SEWAR, BHARATPUR undefined  8946830750  Active  11-02-2016    0.00 
304 2994 Sahil Khan 2014-Aksh-BHARATPUR EMITRA PAYPOINT BHUTA GP MUDIYA TEH. NAGAR    9785709285  Active  11-02-2016    0.00 
305 2995 Rasid Khan 2014-Aksh-BHARATPUR EMITRA PAYPOINT BALKHEDHA GP KHKHABALI TEH. NAGAR Bharatpur     9828254582  Active  11-02-2016    17.75  0.00 
306 2996 Soran 2014-Aksh-BHARATPUR EMITRA PAYPOINT NARANA GP BANDHA CHOTH TEH. DEEG Bharatpur     9214065753  Active  11-02-2016    0.00 
307 2997 Anil Goyam 2014-Aksh-BHARATPUR EMITRA PAYPOINT ROJKI GP PENDKA TEH. NAGAR Bharatpur     9694896625  Active  11-02-2016    0.00 
308 2998 Ajab Singh Beekarwar 2014-Aksh-BHARATPUR EMITRA PAYPOINT MAI KA NAGLA GP MAI TEH. NADBAI Bharatpur     9929499299  Active  11-02-2016    14.79  0.00 
309 2999 Ankur Thanua 2014-Aksh-BHARATPUR EMITRA PAYPOINT NAUHGAYA , HATHENI  SEWAR, BHARATPUR undefined  9414208208  Active  11-02-2016    0.00 
310 3017 Satnam Singh Sandhu 2014-Aksh-BHARATPUR EMITRA Paypoint BARRPURA , AGHAPUR  CHIKSANA, SEWAR  BHARATPUR  9694565465  Active  13-02-2016    0.00 
311 3022 Ashwani Singh 2014-Aksh-BHARATPUR EMITRA PAY POINT VIJAY NAGAR, RUNDH HELAK  KUMHER, BHARATPUR undefined  9829159955  Active  15-02-2016    0.00 
312 3023 Siddharth Agre 2014-Aksh-BHARATPUR Emitra Paypoint Vijaynagar Khumer Bharatpur Rajasthan     9694837688  Active  15-02-2016    0.00 
313 3024 Ram Singh 2014-Aksh-BHARATPUR EMITRA PAY POINT GHATOLI POST KHANSURJAPUR TEH. RUPBAS BHARATPUR    9929404345  Active  15-02-2016    .9  0.00 
314 3025 Chandra Prakash Yadav 2014-Aksh-BHARATPUR EMITRA PAY POINT MAHCHAULI PIPLA BLOCK SEWAR BHARATPUR    8769060087  190  Active  15-02-2016    532.6  0.00 
315 3029 Neeru Singh 2014-Aksh-BHARATPUR EMITRA PAY POINT BHAHRABALI GP BHESHA TEH. RUPBAS BHARATPUR    9166676846  Active  16-02-2016    .95  0.00 
316 3030 Ravi Kumar 2014-Aksh-BHARATPUR EMITRA PAY POINT KARMUKABAAS GP LEHRSAR TEH. KAMAN BHARATPUR    7891212511  Active  16-02-2016    0.00 
317 3032 Manoj Kumar 2014-Aksh-BHARATPUR EMITRA PAY POINT LODHAHEDI GP GHANKAR TEH. NAGAR BHARATPUR    8058260315  Active  16-02-2016    0.00 
318 3034 Narendra Kumar 2014-Aksh-BHARATPUR EMITRA PAY POINT JATOLI GHANA GP BACHAMDI SEWAR BHARATPUR    9461841710  Active  16-02-2016    0.00 
319 3035 Chhote Lal 2014-Aksh-BHARATPUR EMITRA PAY POINT SUPAWAS GP RETHOTI TEH. KUMHER BHARATPUR    9636282236  Active  16-02-2016    0.00 
320 3036 Ramveer Gurjar 2014-Aksh-BHARATPUR EMITRA PAY POINT RANOTA GP MORAKA TEH. NAGAR BHARATPUR    9785438001  Active  16-02-2016    0.00 
321 3037 Ramchand 2014-Aksh-BHARATPUR EMITRA PAY POINT RAVIDASPURA GP GANGABAK TEH NAGAR BHARATPUR     9929797614  Active  16-02-2016    0.00 
322 3038 Ramavtar Gurjar 2014-Aksh-BHARATPUR EMITRA PAY POINT GHATA GP PALLA TEH. KAMAN BHARATPUR    9468682522  Active  16-02-2016    .95  0.00 
323 3039 Mohammad Irashad 2014-Aksh-BHARATPUR EMITRA PAY POINT ANGRAWALI GP BILONG TEH. KAMAN BHARATPUR    9828282183  Active  16-02-2016    .51  0.00 
324 3040 Lakhan Singh 2014-Aksh-BHARATPUR EMITRA PAY POINT JURHARI GP PAAI TEH. KAMAN BHARATPUR    9887539321  Active  16-02-2016    0.00 
325 3041 Narayan Singh 2014-Aksh-BHARATPUR Emitra Pay Point Badhipur Gp Satwas Teh. Kaman Bharatpur    7792951767  Active  16-02-2016    34.67  0.00 
326 3042 Rajesh Kumar 2014-Aksh-BHARATPUR EMITRA PAY POINT BAJHRA GP SUNHERA TEH. KAMAN BHARATPUR    9927238301  Active  16-02-2016    59.37  0.00 
327 3058 Bachchu Singh 2014-Aksh-BHARATPUR NEAR GANDHI MANDIR, PANCHYAT SAMITI ROAD  BAYANA, BHARATPUR undefined  9414446200  272  Active  17-02-2016    18.84  47.83 
328 3063 Jagdish Kumar 2014-Aksh-BHARATPUR EMITRA PAY POINT BADHRIPUR TEHSIL DEEG BHARATPUR    9694546972  Active  19-02-2016    0.00 
329 3064 Akash Agre 2014-Aksh-BHARATPUR EMITRA PAY POINT SATYAPURA, RUNDH HELAK  KUMHER , BHARATPUR undefined  9782123003  Active  19-02-2016    0.00 
330 3070 Mohammad Salim 2014-Aksh-BHARATPUR EMITRA PAYPOINT PEEPROLI SIKRI NAGHAR Bharatpur     8107165786  Active  23-02-2016    0.00 
331 3071 Ashok Kumar 2014-Aksh-BHARATPUR EMITRA PAY POINT BOOLKHERA KA BASS GP BOOLKHERA TEH. KAMAN     9950292638  Active  23-02-2016    0.00 
332 3110 Hakim Singh 2014-Aksh-BHARATPUR EMITRA PAY POINT AJNOULI GP LAHCHORAKALAN TEH. BAYANA BHARATPUR    7615999265  Active  01-03-2016    9.4  0.00 
333 3113 Rahul Kumar 2014-Aksh-BHARATPUR EMITRA PAY POINT KARBAN GP SUHARI TEH. BHUSAWAR BHARATPUR    9694772267  Active  01-03-2016    0.00 
334 3114 Sarpu Khan 2014-Aksh-BHARATPUR EMITRA PAY POINT RAYAPUR SUKETI GP PALKA TEH NAGAR BHARATPUR    8696530760  Active  01-03-2016    0.00 
335 3115 Govind Singh 2014-Aksh-BHARATPUR EMITRA PAY POINT MADANPUR GP DHADREN TEH. BAYANA BHARATPUR    8003062401  Active  01-03-2016    0.00 
336 3117 Rijwan Khan 2014-Aksh-BHARATPUR EMITRA PAY POINT RASULPUR GP KAKRALA TEH. NAGAR BHARATPUR    9982157989  Active  01-03-2016    0.00 
337 3120 Bahadur Singh 2014-Aksh-BHARATPUR Emitra Pay Point Vill Hingota Deeg Bharatpur    9828713071  Active  01-03-2016    .93  0.00 
338 3152 Naval Singh 2014-Aksh-BHARATPUR VILLAGE - BAJHERA, POST - BACHHAMADI NOH  TEHSIL And DISTRICT - BHARATPUR   8233007554  311  Active  04-03-2016    1264.28  0.00 
339 3153 Ravi Kumar 2014-Aksh-BHARATPUR Goga Ji E-mitra Ward no 20 Near Kathputali  Temple Mohalla Gopal Garh Bharatpur (Rajasthan)   8058573640  244  Active  04-03-2016    117.05  0.00 
340 3154 Mukesh Chaturvedi 2014-Aksh-BHARATPUR KANJOLI LINE BHARATPUR    9024718864  74  Active  04-03-2016    12235.59  38.26 
341 3155 Lukman Hakeeem 2014-Aksh-BHARATPUR VILL.DAYANAWAS POST KHOHRI TEHSIL NAGAR Bharatpur     9828485035  849  Active  04-03-2016    947.74  0.00 
342 3156 Yadvendra Singh 2014-Aksh-BHARATPUR EMITRA PAY POINT MILKIPURA GP KHAGRI TEH. NADBAI BHARATPUR    7240724818  Active  04-03-2016    .58  0.00 
343 3157 Mukhiya Singh 2014-Aksh-BHARATPUR EMITRA PAY POINT BARABALI GP SONGAWON TEH. DEEG BHARATPUR    9660011940  Active  04-03-2016    514.07  0.00 
344 3158 Rajendra Singh 2014-Aksh-BHARATPUR EMITRA PAY POINT GULBANEE GP JAISHREE TEH. NAGAR BHARATPUR    9166177097  Active  04-03-2016    0.00 
345 3192 Mahesh Chand 2014-Aksh-BHARATPUR EMITRA PAYPOINT SANDUGAR GP PEPAL KEHDA TEH. PAHADI BHARATPUR    9983446060  Active  11-03-2016    .74  0.00 
346 3193 Prakash Chand 2014-Aksh-BHARATPUR EMITRA PAY POINT MEHRAMPUR GP RAISHEES TEH. NADBAI BHARATPUR    9694206895  Active  11-03-2016    0.00 
347 3194 Santoshi Lal 2014-Aksh-BHARATPUR Emitra Pay Point UNDRA GP GUSYAARI TEH BHARATPUR    8947064553  Active  11-03-2016    .95  0.00 
348 3195 Narayan Singh 2014-Aksh-BHARATPUR RAJPOOT EMITRA INDRA COLONEY TEHSIL KAMAN Bharatpur     9680813030  375  Active  12-03-2016    268.58  0.00 
349 3197 Jeetendra Kumar 2014-Aksh-BHARATPUR EMITRA PAY POINT JOGIPURA GP BAROLIRAAN TEH. NADBAI BHARATPUR    9694471104  Active  14-03-2016    0.00 
350 3198 Sagar Kirad 2014-Aksh-BHARATPUR EMITRA PAY POINT UNEAR GP ECHARA TEH. NADBAI BHARATPUR    8058300769  Active  14-03-2016    0.00 
351 3199 Sonu Rawat 2014-Aksh-BHARATPUR EMITRA PAY POINT SIKRORA GP SIKRORI TEH. KUMHER BHARATPUR    9785171759  Active  14-03-2016    0.00 
352 3200 Prakash Chand 2014-Aksh-BHARATPUR EMITRA PAY POINT JAHRLA GP BALABGARD TEH. WEIR BHARATPUR    9784958550  Active  14-03-2016    5.9  0.00 
353 3201 Sanjay Singh 2014-Aksh-BHARATPUR EMITRA PAY POINT LULHAARO GP PAHERSAR THE. NADBAI BHARATPUR    9413301358  Active  14-03-2016    0.00 
354 3202 Anil Singh 2014-Aksh-BHARATPUR EMITRA PAY POINT UDPURI GP SAADPURI TEH. NAGAR BHARATPUR    8440082546  Active  14-03-2016    0.00 
355 3203 Rinku Singh 2014-Aksh-BHARATPUR EMITRA PAY POINT VILLAGE - DIDWARI, Gram Panchayat -  TALPHARA TEHSIL - NAGAR  BHARATPUR  7690045154  Active  14-03-2016    0.00 
356 3204 Hargovind Singh 2014-Aksh-BHARATPUR Emitra Pay Point Village - Bailara, Gram Panchayat - Kedi Devi Singh  Tehsil - Nadbai, Bharatpur undefined  9785338413  Active  14-03-2016    55.25  0.00 
357 3205 Hemu Rawat 2014-Aksh-BHARATPUR EMITRA PAY POINT SITARA GP PALA TEH. KUMHER BHARATPUR    9983022353  Active  15-03-2016    0.00 
358 3206 Vijendra Singh 2014-Aksh-BHARATPUR Vill.-Higota Deeg Bharatpur Rajasthan     9928225945  1533  Active  15-03-2016    4143.47  0.00 
359 3230 Rajesh Kumar 2014-Aksh-BHARATPUR RAJESH EMITRA CENTRE VIIL. &POST SUNHERA TH. KAMAN Bharatpur     9521192113  80  Active  22-03-2016    1843.57  0.00 
360 3233 Shiv Kumar 2014-Aksh-BHARATPUR Bapu Bazar Nagar Bharatpur    9414610952  3695  Active  22-03-2016    5063.47  401.74 
361 3241 Vijay Pal Singh 2014-Aksh-BHARATPUR EMITRA PAY POINT KEALURI GP RONIJA TEH. NADBAI BHARATPUR    9982130413  Active  22-03-2016    0.00 
362 3242 Shaheed 2014-Aksh-BHARATPUR EMITRA PAY POINT MOOTHUKA GP DIMARI TEH. PHADHI BHARATPUR    9783873062  Active  22-03-2016    0.00 
363 3303 Vishnu Kumar 2014-Aksh-BHARATPUR SAMOGAR TEHSIL BAYANA BHARATPUR    8386879606  Active  11-04-2016    1253.48  0.00 
364 3348 Usaman 2014-Aksh-BHARATPUR Emitra Pay Point Targama, Gram Panchayat - Ghatri Weir  Bharatpur, Rajasthan undefined  9785563535  Active  14-04-2016    0.00 
365 3349 Haricharan Singh 2014-Aksh-BHARATPUR Emitra Pay Point Village Dhanipura, Gram Panchayat - Nayavas Nadbai  Bharatpur, Rajasthan undefined  7665178638  Active  14-04-2016    0.00 
366 3351 Narayan Singh 2014-Aksh-BHARATPUR EMITRA PAY POINT JHARKAI GP BHOUSINGATEH NADBAI BHARATPUR    8441957123  Active  14-04-2016    93.93  0.00 
367 3352 Faiji Khan 2014-Aksh-BHARATPUR EMITRA PAYPOINT CHANDUKADA NAGAR BHARATPUR     8107174788  Active  14-04-2016    0.00 
368 3355 Jagannath Sharma 2014-Aksh-BHARATPUR EMITRA PAY POINT KHOHARI DEEG, BHARATPUR  RAJASTHAN   9782074037  Active  14-04-2016    0.00 
369 3356 Chandra Prakash 2014-Aksh-BHARATPUR EMITRA PAY POINT CHAK CHEALUA GRAM  PANCHAYAT- FATEHPUR KALAN NAGAR, BHARATPUR   9667805875  Active  14-04-2016    0.00 
370 3357 Vinay Garg 2014-Aksh-BHARATPUR EMITRA PAY POINT ATARIPURA (PAY POINT) GRAM PANCHAYAT- BAROLI, WEIR  BHARATPUR,RAJASTHAN undefined  8441086608  Active  14-04-2016    0.00 
371 3418 Junaid Khan 2014-Aksh-BHARATPUR Emitra Pay Point Village - Khohra, Gram  Panchayat - Olanda Kaman. Bharatpur   9983855001  Active  27-04-2016    0.00 
372 3421 Pankaj Kumar 2014-Aksh-BHARATPUR JANGID E-MITRA CENTRE V-P LAITA MUDIA TEH. WEIR BHARATPUR    9549662601  220  Active  27-04-2016    386.85  57.39 
373 3422 Girdhari Lal 2014-Aksh-BHARATPUR EMITRA PAY POINT BADHAKA GP ALAMSHA TEH. NAGAR BHARATPUR    9024997554  Active  27-04-2016    0.00 
374 3469 Krishan Kant Katara 2014-Aksh-BHARATPUR Mahalpur Kachhi, Dhahina Gaon  Rudawal, Roopwas  Bharatpur - 321402  9680163635  30  Active  06-05-2016    81.48  0.00 
375 3475 Nagendra Kumar 2014-Aksh-BHARATPUR Ashi E-Mitra, Subhash Nagar  Bharatpur   9166376312  405  Active  10-05-2016    .66  0.00 
376 3492 Arsad 2014-Aksh-BHARATPUR Emitra Paypoint DUDAWAL GP DUDAWAL TEH. NAGAR Bharatpur Rajasthan     9929229003  Active  18-05-2016    0.00 
377 3493 Hari Singh 2014-Aksh-BHARATPUR EMITRA PAY POINT VILLAGE - GOBRA, Gram Panchayat- JHANGEERPUR  TEHSIL - NADBAI, BHARATPUR undefined  8290043324  Active  18-05-2016    0.00 
378 3517 Koushal Kumar 2014-Aksh-BHARATPUR Plot No. 55, 56 Tilak Nagar  Bharatpur   9460013498  521  Active  24-05-2016    169.51  0.00 
379 3528 Gajendra Singh 2014-Aksh-BHARATPUR House No. - 44/560, Gandhi Nagar  Near Railway Colony, Bharatpur undefined  9610279875  Active  26-05-2016    200.47  0.00 
380 3529 Ramesh Chand Saini 2014-Aksh-BHARATPUR Ramesh E-Mitra Centre Halena Road, Nadbai  Bharatpur   9887337792  2100  Active  26-05-2016    219.57  0.00 
381 3531 Maneesh Kumar 2014-Aksh-BHARATPUR Atal Seva Kendra, Saheda  Kaman, Bharatpur undefined  8502987604  425  Active  27-05-2016    410.37  0.00 
382 3537 Sonu Singh 2014-Aksh-BHARATPUR Village- Naroli, Tehsil - Bayana  Bharatpur   9462927787  100  Active  27-05-2016    112.06  0.00 
383 3580 Rahil 2014-Aksh-BHARATPUR SAHSAN PAHADI BHARATPUR    9785407856  1460  Active  11-06-2016    775.62  103.30 
384 3584 Dharmveer Singh 2014-Aksh-BHARATPUR Holy Mohalla, 4 Thok Vill. Post - Jaghina  Bharatpur   9461460292  44  Active  11-06-2016    .43  0.00 
385 3639 Prince Kumar Singhal 2014-Aksh-BHARATPUR Singhal Computers, Buddh Ki Hat  Bharatpur   7734909092  463  Active  04-07-2016    1258.63  0.00 
386 3640 Mohan Singh 2014-Aksh-BHARATPUR NEAR SURJEET SCHOOL PAIBAG BHARATPUR    9460012435  137  Active  04-07-2016    198.96  0.00 
387 3641 Alam Ali 2014-Aksh-BHARATPUR Village - Sablana, Tehsil - Kaman  District - Bharatpur   9252525751  10  Active  04-07-2016    494.29  38.26 
388 3642 Mamta Gupta 2014-Aksh-BHARATPUR BANSI PAHAR PUR ROAD RUDAWAL BHARATPUR    9828941084  Active  04-07-2016    303.2  0.00 
389 3643 Mamta Kumari 2014-Aksh-BHARATPUR Hijdon Ka Atta, Kumher Gate  Bharatpur    9460480429  167  Active  04-07-2016    679.14  0.00 
390 3652 Ramveer Singh 2014-Aksh-BHARATPUR Emitra Pay Point Village - Gundgoan, Grampanchayat - Nandera Kaman  Bharatpur, Rajasthan undefined  8058045874  Active  05-07-2016    0.00 
391 3653 Pushpendra Singh 2014-Aksh-BHARATPUR Emitra Pay Point Village - Bikaru, Granmpanchayat - Akheghar Nadbai  Bharatpur, Rajasthan undefined  8239008232   Active  05-07-2016    0.00 
392 3654 Maharaj Singh 2014-Aksh-BHARATPUR Emitra Pay Point Village - Amar Singh Ka Bas  Grampanchayat- Basburja Nagar, Bharatpur   9772155981  Active  05-07-2016    0.00 
393 3655 Dharmendra Singh 2014-Aksh-BHARATPUR Emitra Pay Point Village - Raipur, Grampanchayat - Bhatpura Nagar  Bharatpur, Rajasthan undefined  8290150771  Active  05-07-2016    0.00 
394 3656 Maharaj Singh 2014-Aksh-BHARATPUR Emitra Pay Point Village And Post - Barauli Dhau, Tehsil - Kaman   Bharatpur, Rajasthan undefined  9929223200  Active  05-07-2016    0.00 
395 3686 Pokhan Singh 2014-Aksh-BHARATPUR PAHARSAR CHAURAHA SHAHPUR NADBAI Bharatpur Rajasthan     8769839328  680  Active  20-07-2016    349.8  0.00 
396 3687 Mayank Jain 2014-Aksh-BHARATPUR JAIN EMITRA CENTRE JAMA MASJID NAVEEN CITY SCHOOL BHARATPUR    8386962733  824  Active  20-07-2016    323.25  0.00 
397 3688 Ravindra 2014-Aksh-BHARATPUR YASH E-MITRA CENTRA, V-KHADERA   P-KOOMA Th-BHARATPUR   9587171516  135  Active  20-07-2016    108.42  38.26 
398 3706 Satyendra Singh 2014-Aksh-BHARATPUR SAKSHM EMITRA INDRA NAGAR HEERADAS BHARATPUR    7023555680  415  Active  05-08-2016    241.52  0.00 
399 3727 Pankaj Pahuja 2014-Aksh-BHARATPUR PANKAJ EMITRA NEAR SAPANDEEP CYCLE STORE BASAN GATE BHARATPUR    9785427421  Active  22-08-2016    84.26  0.00 
400 814 Aqeela Parveen 2014-Comtech Institute of Technology-Bharatpur In Front of New  Tehsil Kaman Bharatpur  9001892350  521  Active  26-08-2014    1192.58  91.83 
401 867 Sanjay Singh 2014-Comtech Institute of Technology-Bharatpur INFRONT OF STADIUM, JASWANT     9660718564  3706  Active  15-09-2014    1180.06  263.04 
402 868 Nobat Singh 2014-Comtech Institute of Technology-Bharatpur Nobat E - Mitra Center Ibrahimpur Roopwas Bharatpur  9694407982  10  Active  15-09-2014    252.25  0.00 
403 960 DEEPAK KUMAR 2014-Comtech Institute of Technology-Bharatpur Village-RUPBAS BLOCK -RUPBAS DIS- BHARATPUR  9549786858  Active  08-10-2014    .15  0.00 
404 1053 Yogesh Kumar 2014-Comtech Institute of Technology-Bharatpur KALYAN MOHALLA WORD NO.15 KAMAN BHARTAPUR    9875114960  Active  21-11-2014    133.59  0.00 
405 1069 Ram Niwas Saini 2014-Comtech Institute of Technology-Bharatpur NEAR GOVT. HOSPITAL, BHUWASAR  DISTT- BHARATPUR   9587082198  1324  Active  26-11-2014    191.42  26.78 
406 1108 Ravi Kumar Holker 2014-Comtech Institute of Technology-Bharatpur VILL-BORAI,TEHSIL-KUMHER DISTRICT-BHARATPUR   8952827211  30  Active  10-12-2014    37.45  0.00 
407 1117 Rohit Sharma 2014-Comtech Institute of Technology-Bharatpur A - 270 Jawahar Nagar Bharatpur   9828844867  58  Active  15-12-2014    8.78  0.00 
408 1119 Jeetendra singh Dagur 2014-Comtech Institute of Technology-Bharatpur Vill -Purabai khera The - Bayana Dist - Bharatpur  9928690092  Active  15-12-2014    .85  0.00 
409 1123 Jeetu Goyal 2014-Comtech Institute of Technology-Bharatpur NAGAR ROAD, KOTWALI K SAMNE  DEEG, DISTT- BHARATPUR undefined  05641224021  241  Active  17-12-2014    390.47  0.00 
410 1237 Vishambar 2014-Comtech Institute of Technology-Bharatpur VILLAGE.POST.KHANUA TH.RUPBAS DIST.BHARTAPUR    9887622305  Active  29-12-2014    .18  0.00 
411 1457 Samim Khan 2014-Comtech Institute of Technology-Bharatpur Seekri Chak No. 1 Sikri Nagar Bharatpur    9929337831  663  Active  14-03-2015    908.27  0.00 
412 1484 Mukesh Chand 2014-Comtech Institute of Technology-Bharatpur Atal Seva Kendra Khemra Kalan    9694775375  326  Active  23-03-2015    122.59  0.00 
413 1514 Mohan Singh 2014-Comtech Institute of Technology-Bharatpur CHHONKAWADA BHUSWAR BHARATPUR    8385834352  Active  25-03-2015    -500.97  0.00 
414 1515 Sonu Ram Saini 2014-Comtech Institute of Technology-Bharatpur OLD SABZI MANDI BHUSAWARBHARATPUR    9785004950  Active  25-03-2015    800.25  0.00 
415 1817 Ankit Kuntal 2014-Comtech Institute of Technology-Bharatpur G.P Talphara Tehsil Kumher Bharatpur    9785717239  Active  08-04-2015    .35  0.00 
416 1851 Shokeen 2014-Comtech Institute of Technology-Bharatpur ATAL SEWA KENDRA , BAMANWARI, PAHADI BHARATPUR   BHARATPUR  7877919161  2266  Active  14-04-2015    902.6  0.00 
417 1853 Omprakash 2014-Comtech Institute of Technology-Bharatpur V&P MAI, NADBAI  BHARATPUR   9001126308  62  Active  14-04-2015    1042.3  57.39 
418 1963 Chhitar 2014-Comtech Institute of Technology-Bharatpur V&P MAI, NADBAI  BHARATPUR   9636674391  141  Active  20-04-2015    198.98  19.13 
419 2170 Hakmu 2014-Comtech Institute of Technology-Bharatpur ATAL SEVA KENDRA, DHAULET  PAHARI, BHARATPUR undefined  9694786724  297  Active  26-05-2015    69.77  0.00 
420 2493 Bhagat Singh 2014-Comtech Institute of Technology-Bharatpur PAWAN KUNJ COLONY, KAMAN  BHARATPUR   9571816262  232  Active  31-08-2015    166.39  0.00 
421 2494 Dayachand 2014-Comtech Institute of Technology-Bharatpur INDROLI, CHHICHHARWADI  KAMAN, BHARATPUR undefined  8058248257  Active  31-08-2015    .33  0.00 
422 2566 Geetam Singh 2014-Comtech Institute of Technology-Bharatpur ROOPWAS, MILSVA  KHERIYA BILLOCH   9001115145  Active  08-10-2015    .15  19.13 
423 2609 Sunil Kumar 2014-Comtech Institute of Technology-Bharatpur B-NARAYAN GATE DHOBI MOHALLA BHARATPUR    8946908790  1276  Active  30-10-2015    .23  0.00 
424 2610 Bharat Saini 2014-Comtech Institute of Technology-Bharatpur PURANA BUY PASS ROAD NAGAR BHARATPUR    8562010240  Active  30-10-2015    84.27  0.00 
425 2611 Dashrath 2014-Comtech Institute of Technology-Bharatpur RUDABAL ROAD JUHGLA PATTI,UCHCHAIN  RUPBAS BHARATPUR    8504085436  Active  30-10-2015    205.91  76.52 
426 2629 Gulshan Singal 2014-Comtech Institute of Technology-Bharatpur B.NARAYAN GATE,ATAL BANDH ROAD BHARATPUR   7791033074  124  Active  05-11-2015    626.08  38.26 
427 2630 Hitesh Kumar 2014-Comtech Institute of Technology-Bharatpur WARD NO. 19, SONPURA TILAK NAGAR BHARATPUR   9587827377  1762  Active  05-11-2015    459.32  248.70 
428 2631 Tulsi Das 2014-Comtech Institute of Technology-Bharatpur PANDURI,CHENKARA RUPWAS,BHARATPUR undefined  9166693895  Active  05-11-2015    208.52  0.00 
429 2632 Prem Chand Saini 2014-Comtech Institute of Technology-Bharatpur KANJALI LINE DEEG ROAD BHARATPUR    9680883288  1692  Active  05-11-2015    72.27  19.13 
430 2641 Yunus Khan 2014-Comtech Institute of Technology-Bharatpur VPO-BHATPUR,TECH-NAGAR BHARATPUR   7073793419  2894  Active  10-11-2015    470.82  0.00 
431 2655 Madhvendra Kumar 2014-Comtech Institute of Technology-Bharatpur BEHIND OLD LAXMAN MANDIR, BHARATPUR    7610921914  Active  24-11-2015    3.2  0.00 
432 2716 Gokulesh Katara 2014-Comtech Institute of Technology-Bharatpur SUBHASH NAGAR NEAR ADITI CLINIC, GOLPURA ROAD BHARATPUR    7740818852  329  Active  08-12-2015    177.04  0.00 
433 2741 Mazzal Khan 2014-Comtech Institute of Technology-Bharatpur VILL- JATWAS, UDKI DALLA  NAGAR, BHARATPUR undefined  9672281484  490  Active  14-12-2015    396.25  0.00 
434 2743 Indrajeet Singh 2014-Comtech Institute of Technology-Bharatpur Santruk Kumher Bharatpur    9785615761  430  Active  14-12-2015    292.54  0.00 
435 2767 Laxman Singh 2014-Comtech Institute of Technology-Bharatpur AGRASEN SCHOOL KE PASS, SUBHASH NAGAR   BHARATPUR   8058202702  Active  04-01-2016    93.19  0.00 
436 2768 Gulab Singh 2014-Comtech Institute of Technology-Bharatpur GP- GULPADA, BLOCK- NAGARR  BHARATPUR   8875996440  336  Active  04-01-2016    160.01  0.00 
437 2795 Teerath Raj 2014-Comtech Institute of Technology-Bharatpur SALPURPATHI , SIKARI NAGAR, BHARATPUR undefined  9549083991  113  Active  06-01-2016    256.09  0.00 
438 2796 Umesh Chand Saini 2014-Comtech Institute of Technology-Bharatpur VILL- NAYAMADPUR, POST- DHARSONI  WEIR , BHARATPUR undefined  9571805384  700  Active  06-01-2016    977.54  0.00 
439 2797 Hitesh Goyal 2014-Comtech Institute of Technology-Bharatpur SUB TEHSIL OFFICE PARAH, BHARATPUR    7891307585  70  Active  06-01-2016    391.08  57.39 
440 2798 Jeetesh Kumar 2014-Comtech Institute of Technology-Bharatpur VPO- KHARERA, UCHAIN   ROOPWAS, BHARATPUR undefined  9887546526  115  Active  06-01-2016    322.65  57.39 
441 2799 Sanjay Singh Yadav 2014-Comtech Institute of Technology-Bharatpur VILL- GULPADA, NAGAR  BHARATPUR   9928795656  75  Active  06-01-2016    222.68  0.00 
442 2800 Harvendra Kumar 2014-Comtech Institute of Technology-Bharatpur Atal Sewa Kendra, Gram Pachayat Dumariya Tehsil Roopwas, Bharatpur   9983939425  330  Active  06-01-2016    1600.51  0.00 
443 2801 Munfaid Khan 2014-Comtech Institute of Technology-Bharatpur JUMMA BANAINI DHONLKA, PADALWAS  TEH-NAGAR, BHARATPUR undefined  9610567110  35  Active  06-01-2016    2133.74  45.91 
444 2802 Vishnu Kumar 2014-Comtech Institute of Technology-Bharatpur GP- SOUMKA, TEH- KAMAN  BHARATPUR   9672439280  Active  06-01-2016    3845.45  0.00 
445 2804 Parshottam 2014-Comtech Institute of Technology-Bharatpur KANWARA , TEHSIL- KAMAN  BHARATPUR   8740976447  294  Active  06-01-2016    12.43  0.00 
446 2805 Sirajuddin 2014-Comtech Institute of Technology-Bharatpur ATAL SEWA KENDRA SOMKA, KAMAN  BHARATPUR   8696614061  Active  06-01-2016    8.95  0.00 
447 2808 Ravindra Singh 2014-Comtech Institute of Technology-Bharatpur NEAR KANNI GURJAR CIRCLE, BHARATPUR    9928902445  921  Active  06-01-2016    155.67  26.78 
448 2860 Uttamchand Sharma 2014-Comtech Institute of Technology-Bharatpur ATAL SEVA KENDRA PAR, SEWAR  BHARATPUR   9828356142  Active  19-01-2016    .58  0.00 
449 2861 Devendra Sharma 2014-Comtech Institute of Technology-Bharatpur ATAL SEVA KENDRA PINGORA, NADBAI  BHARATPUR   8739826723  20  Active  19-01-2016    344.18  28.70 
450 2868 Veerendra Kumar 2014-Comtech Institute of Technology-Bharatpur BYANA ROAD JARILA, BHAWANPURA  ROOPBAS, BHARATPUR undefined  9772300192  Active  25-01-2016    46.87  0.00 
451 2869 Omprakash 2014-Comtech Institute of Technology-Bharatpur EMITRA PAY POINT NAGLA MAI, GP- MAI  NADMAI, BHARATPUR undefined  9001126308  Active  25-01-2016    .17  0.00 
452 2875 Bajib 2014-Comtech Institute of Technology-Bharatpur VILL DUNAWAL, NAGAR   BHARATPUR   9057977653  Active  28-01-2016    67.49  0.00 
453 2876 Lavesh Mudgal 2014-Comtech Institute of Technology-Bharatpur SHARMA EMITRA KENDRA, KHEDIYA MODE  NADBAI, BHARATPUR undefined  7737303119  569  Active  28-01-2016    .76  95.65 
454 2877 Rajveer Singh 2014-Comtech Institute of Technology-Bharatpur NET WEB SOFT EMITRA CENTER, NEAR SARAS HOTEL  VIJAYNAGAR, BHARATPUR undefined  8233196869  398  Active  28-01-2016    361.39  0.00 
455 2881 Vivek Kumar 2014-Comtech Institute of Technology-Bharatpur ATAL SEVA KANDRA DAHINA GAUV,ROOPBAS BHARATPUR   8058329140  Active  28-01-2016    659.4  0.00 
456 2902 Anil Kumar 2014-Comtech Institute of Technology-Bharatpur NEAR BUS STAND PAHARI,BHARATPUR    9509274849  1027  Active  02-02-2016    469.92  57.39 
457 2905 Satyendra Singh 2014-Comtech Institute of Technology-Bharatpur VILL-MUDHERA,BHARATPUR    9460925072  Active  02-02-2016    .52  0.00 
458 2907 Yashpal Saini 2014-Comtech Institute of Technology-Bharatpur VPO- PATHENA, WEIR  BHARATPUR   8502851818  Active  02-02-2016    0.00 
459 2936 Jitendra Kumar 2014-Comtech Institute of Technology-Bharatpur E-MITRA PAY POINT JURHARIGP:PAI, KAMAN BHARATPUR    8440810723  Active  04-02-2016    143.07  0.00 
460 2985 Susheela Devi 2014-Comtech Institute of Technology-Bharatpur E-MITRA PAY POINT BIRAR GP:SABLANA KAMAN BHARATPUR    9680135253  Active  09-02-2016    9.11  0.00 
461 3008 Dharm Singh 2014-Comtech Institute of Technology-Bharatpur CHHOTE RAM JI MANDIR, HIGH SCHOOL KE PASS  KAMAN, BHARATPUR undefined  9549914172  270  Active  12-02-2016    847.82  26.78 
462 3010 Bhola Ram 2014-Comtech Institute of Technology-Bharatpur NIKKI COMPUTERS & EMITRA CENTER NAJDEEKI PETROL PUMP KE SAMNE, PAHARI  BHARATPUR   9529825570  60  Active  12-02-2016    1401.42  0.00 
463 3012 Abhay Singh Chaudhary 2014-Comtech Institute of Technology-Bharatpur ATAL SEVA KENDRA , WEIR  BHARATPUR   9929452588  Active  12-02-2016    391.9  0.00 
464 3050 Kumarpal 2014-Comtech Institute of Technology-Bharatpur VPO- BARAHI, DEEG  BHARATPUR   9887691796  19  Active  17-02-2016    60.01  0.00 
465 3051 Neha Jain 2014-Comtech Institute of Technology-Bharatpur INDRA CHOWK KUMHER,TEH-KUMHER BHARATPUR   9460877077  664  Active  17-02-2016    .22  0.00 
466 3072 Ramgopal Singh 2014-Comtech Institute of Technology-Bharatpur E-MITRA PAY POINT KARUA GP:TAMRER, KUMHER BHARATPUR    9694924192  Active  23-02-2016    1879.16  0.00 
467 3096 Zakir Husain 2014-Comtech Institute of Technology-Bharatpur EMITRA PAY POINT RANIYALA,GP-JAISHREE PS-NAGAR,BHARATPUR undefined  9772307016  Active  29-02-2016    19.11  0.00 
468 3097 Rajender Kumar 2014-Comtech Institute of Technology-Bharatpur SHIVAM STUDIO , SAHYOG NAGAR  BHARATPUR   9785613357  102  Active  29-02-2016    49.87  0.00 
469 3143 Nagendra Singh 2014-Comtech Institute of Technology-Bharatpur Heeradas Central Bus Stand Ke Samne, Khadi Bhandar Ki Bagal Main  Bharatpur   9166862393  213  Active  03-03-2016    1066.66  26.78 
470 3284 Sirajuddin 2014-Comtech Institute of Technology-Bharatpur VILL-DHANA,GP-SOMKA TEH-PAHARI,BHARATPUR undefined  8696614061  Active  01-04-2016    0.00 
471 3285 Mustufa 2014-Comtech Institute of Technology-Bharatpur EMITRA PAY POINT KHERIL NANOO,GP-GHOSEENGA PS-PAHAI,BHARATPUR undefined  8058532828  Active  01-04-2016    141.83  0.00 
472 3360 Saurabh Kumar 2014-Comtech Institute of Technology-Bharatpur NEAR BAGARWALA SHOWROOM,OLD LAXMAN MANDIR BHARATPUR   8058577992  195  Active  14-04-2016    44.2  19.13 
473 3393 Satyapal Harsainia 2014-Comtech Institute of Technology-Bharatpur TODAY INFORMATICS CENTER, INDRA NAGAR  HEERADAS, BHARATPUR undefined  7597412603  77  Active  21-04-2016    52.34  19.13 
474 3460 Bhawani Singh Yadav 2014-Comtech Institute of Technology-Bharatpur VPO- PALKA, TEH- NAGAR  BHARATPUR   9672831095  43  Active  05-05-2016    60.69  0.00 
475 3461 Yogesh 2014-Comtech Institute of Technology-Bharatpur BEHIND ANAND SCHOOL, SHASTRI NAGAR   BHARATPUR   8385999640  1093  Active  05-05-2016    1290.63  133.91 
476 3470 Manish 2014-Comtech Institute of Technology-Bharatpur ATAL SEVA KENDRA BARAI, DEEG  BHARATPUR   8440017001  Active  10-05-2016    .68  0.00 
477 3509 Mahendra Kumar 2014-Comtech Institute of Technology-Bharatpur SIKARI CHAK NO 1,VILL-SIKARI PS-NAGAR,BHARATPUR undefined  9667935096  1351  Active  24-05-2016    19.64  0.00 
478 3512 Pankaj Sharma 2014-Comtech Institute of Technology-Bharatpur 351, RAJENDRA NAGAR  BHARATPUR   9024151282  Active  24-05-2016    1.47  0.00 
479 3525 Love Kumar 2014-Comtech Institute of Technology-Bharatpur EMITRA PAY POINT JAREELA,GP- BHAVANPURA  RUPBAS, BHARATPUR  undefined  9982751032  Active  25-05-2016    102.37  0.00 
480 3530 Shivjeet 2014-Comtech Institute of Technology-Bharatpur ANAND NAGAR, SEWAR BYPASS  BHARATPUR   9887996296  137  Active  26-05-2016    250.14  0.00 
481 3542 Pradeep Kumar Saini 2014-Comtech Institute of Technology-Bharatpur BANKEY BIHARI EMITRA CENTER, NEAR CANERA BANK  NADBAI, BHARATPUR undefined  8963891892  698  Active  30-05-2016    955.02  133.91 
482 3622 Pramod Kumar 2014-Comtech Institute of Technology-Bharatpur NEAR NAND PETROL PUMP, PAHARI ROAD  KAMAN , BHARATPUR undefined  9680195434  44  Active  27-06-2016    62.67  0.00 
483 3623 Sumundara Singh 2014-Comtech Institute of Technology-Bharatpur AMBEDKAR CHOK, TEH-KAMAN  BHARATPUR   9785687903  80  Active  27-06-2016    8.54  0.00 
484 3624 Shri Ram Sharma 2014-Comtech Institute of Technology-Bharatpur NEAR HINDI PUSTKALAY, NEEM GHATA MOHALLA  DEEG, BHARATPUR undefined  9413591580  Active  27-06-2016    0.00 
485 3625 Tejpal 2014-Comtech Institute of Technology-Bharatpur BHUDA GATE , DEEG BHARATPUR    9785621522  2497  Active  27-06-2016    .82  0.00 
486 3626 Karan Singh Choudhary 2014-Comtech Institute of Technology-Bharatpur VPO- BARASO, BHARATPUR    9783826851  Active  27-06-2016    .16  0.00 
487 3627 Lokendra Mauhviya 2014-Comtech Institute of Technology-Bharatpur VILL- BAROLI CHOUITH, DEEG   BHARATPUR   9929750657  63  Active  27-06-2016    206.67  0.00 
488 3693 Niraj Jain 2014-Comtech Institute of Technology-Bharatpur TOLAN CHOK JURHERA TEH. KAMAN DIST. BHARATPUR    9785478293  207  Active  25-07-2016    202.2  0.00 
489 3729 Ramkumar 2014-Comtech Institute of Technology-Bharatpur Vill-Tontpur,Moloni Khurd Roopwas,Bharatpur undefined  9887276357  80  Active  23-08-2016    33.71  0.00 
490 3730 Jitendra Kumar 2014-Comtech Institute of Technology-Bharatpur KALLAR MOHALLA, PAI  KAMAN, BHARATPUR undefined  8440810723  1000  Active  24-08-2016    42.13  0.00 
491 3737 Hemendra Singh 2014-Comtech Institute of Technology-Bharatpur Vpo-Paprera ,Teh. -Kumher Bharatpur    8442072741  Active  31-08-2016    8.43  0.00 
492 3738 Subhash Chand Sharma 2014-Comtech Institute of Technology-Bharatpur Raghav Colony Wair Bharatpur    9829634452  1770  Active  31-08-2016    17.35  0.00 
493 3761 Lekhraj Bhardwaj 2014-Comtech Institute of Technology-Bharatpur Near Kali Ki Bagichi Bajrang Vihar Colony Bharatpur    9309228428  Active  05-09-2016    0.00 
494 3762 Yogesh Kumar Singhal 2014-Comtech Institute of Technology-Bharatpur Nagla Khushpan Post Nawali Teh.-Bayana    8441909957  Active  05-09-2016    0.00 
495 3763 Gopi Chand 2014-Comtech Institute of Technology-Bharatpur Bodali, NagarBahatpur    9983572781  Active  05-09-2016    0.00 
496 3766 Jeetendra Singh 2014-Comtech Institute of Technology-Bharatpur Vpo-Thakhha,Teh -Kumher Bharatpur    8003503692  Active  08-09-2016    0.00 
497 3775 Anju Goyal 2014-Comtech Institute of Technology-Bharatpur Hospital Road RudawalBharatpur    8432325569  Active  19-09-2016    0.00 
498 3776 Jai Prakash 2014-Comtech Institute of Technology-Bharatpur Vpo-Bartai ,Tehsil-Kumer  Dist.-Bharatpur   9602087676  Active  21-09-2016    0.00 
499 3777 Ashok Kumar 2014-Comtech Institute of Technology-Bharatpur Jhalatala Moloni Wair Bharatpur    9413654845  Active  21-09-2016    0.00 
500 3778 Uttam Singh Yadav 2014-Comtech Institute of Technology-Bharatpur Daural,Post-Berroo Teh.-NagarBharatpur   9785471783  Active  21-09-2016    0.00 
501 1435 Yashwant Yadav 2014-CMS eMitra-Bharatpur GARM BISDA POST JHAROLI SEWAR BHARATPUR    8432182838  Active  02-03-2015    .77  0.00 
502 1511 Mahesh Chand 2014-CMS eMitra-Bharatpur Gram Sendhli Weir Bharatpur    9887091919  Active  25-03-2015    -1561.99  0.00 
503 1512 Bhagwan Singh 2014-CMS eMitra-Bharatpur Gram Itamda Bhusawar Bharatpur    9887847501  735  Active  25-03-2015    600.69  0.00 
504 2134 Naresh Chand Gupta 2014-CMS eMitra-Bharatpur KAKAJI MARKET KE PASS CHOUBURJA BAZAR BHARATPUR    9413650001  155  Active  14-05-2015    152.2  0.00 
505 2221 Indar Singh 2014-CMS eMitra-Bharatpur GRAM-GIVINDPURA POST-MUHARI WEIR BHARATPUR    05643272582  Active  29-05-2015    .72  0.00 
506 2481 Govind Singh 2014-CMS eMitra-Bharatpur BAGHEL PHOTO STATE,HELAK CHORAHA  SAVER, BHARATPUR undefined  9785139859  411  Active  28-08-2015    799.37  95.65 
507 2592 Prabhu Dayal 2014-CMS eMitra-Bharatpur GRAM PANHORI TEH. DEEG BHARATPUR    9785622773  Active  19-10-2015    -23.69  0.00 
508 3057 Rajkumar 2014-CMS eMitra-Bharatpur Umra,Au.Deeg Bharatpur   9982240193  Active  17-02-2016    0.00 
509 3374 Vishal 2014-CMS eMitra-Bharatpur Vishal Emitra Center Binarayan Gate Bharatpur    8502879450  2701  Active  18-04-2016    155.85  0.00 
510 3429 Suresh Chand 2014-CMS eMitra-Bharatpur Emitra Pay PointGram Arauda Hantra Nadbai Bharatpur    9057778495  Active  29-04-2016    33.12  0.00 
511 3430 Pooran Singh 2014-CMS eMitra-Bharatpur Emitra Pay PointGram Sadhpura Purwai Kheda Bayana Bharatpur    7690951414  Active  29-04-2016    0.00 
512 3431 Ramveer Singh 2014-CMS eMitra-Bharatpur Emitra Pay PointGram Thikariya Brodha Bayana Bharatpur    8696546769  Active  29-04-2016    .51  0.00 
513 3432 Jawahar Singh 2014-CMS eMitra-Bharatpur Emitra Pay PointGram Bhootka Muriya Nagar Bharatpur    9929816348  Active  29-04-2016    0.00 
514 3433 Sunil Kumar 2014-CMS eMitra-Bharatpur Emitra Pay PointGram Sasaina Weir Bharatpur    8094505869  Active  29-04-2016    0.00 
515 3436 Meghraj 2014-CMS eMitra-Bharatpur Emitra Pay PointGram Kurkain Aalamshah Nagar Bharatpur    8058912838  Active  29-04-2016    0.00 
516 3437 Lakhan Singh 2014-CMS eMitra-Bharatpur Emitra Pay PointGram Khanpur Jarothi Weir Bharatpur    9549126940  Active  29-04-2016    0.00 
517 3439 Pankaj Kumar Verma 2014-CMS eMitra-Bharatpur Emitra Pay PointGram+Post Bachhren Wair Bharatpur    8441809880  Active  29-04-2016    0.00 
518 3440 Arif Khan 2014-CMS eMitra-Bharatpur Emitra Pay PointGram Arsi Nagar Bharatpur    9672204915  Active  29-04-2016    0.00 
519 3480 Jaiveer Singh 2014-CMS eMitra-Bharatpur Emitra Pay PointGram Habeebpur Post Par Sewar Bharatpur    9460454182  Active  17-05-2016    .51  0.00 
520 3481 Ravindra Kumar Verma 2014-CMS eMitra-Bharatpur Emitra Pay PointGram  Salempur Khurd Post Salempur Khurd The. Bhusawar Bharatpur    8058947783  Active  17-05-2016    21.85  0.00 
521 3482 Salman Khan 2014-CMS eMitra-Bharatpur Emitra Pay Point Gram Chak Cheluwa, Fatehpur Nagar Bharatpur    8058481135  Active  17-05-2016    0.00 
522 3483 Jaikam Khan 2014-CMS eMitra-Bharatpur Vill. Semla Kalan, Teh. Nagar  Bharatpur.   9887156024  Active  17-05-2016    0.00 
523 3484 Lekhraj 2014-CMS eMitra-Bharatpur Emitra Pay PointGram Kumharedi Chirawal Mali Nagar Bharatpur    8440029807  Active  17-05-2016    0.00 
524 3485 Islam 2014-CMS eMitra-Bharatpur Emitra Pay PointGram Vadhaka Aalamshah Nagar Bharatpur    9672106851  Active  17-05-2016    0.00 
525 3486 Lakhan Singh 2014-CMS eMitra-Bharatpur Emitra Pay PointGram Nagla Khatka NahroliRudawal Bayana Bharatpur    8058673074  Active  17-05-2016    0.00 
526 3487 Ramveer Singh 2014-CMS eMitra-Bharatpur Emitra Pay PointGram Jaghina Sewar Bharatpur    7222877701  Active  17-05-2016    0.00 
527 3488 Soran Singh 2014-CMS eMitra-Bharatpur Emitra Pay Point Gram Ravidaspura Gangwak Nagar Bharatpur    9772656530  Active  17-05-2016    0.00 
528 3489 Vahid Khan 2014-CMS eMitra-Bharatpur Emitra Pay Point Gram Gahankar Pandaka Nagar Bharatpur    9549811391  Active  17-05-2016    .74  0.00 
529 3490 Shashi Kumar 2014-CMS eMitra-Bharatpur Emitra Pay Point Gram Rund Helak Bari Rund Helak Kumher Bharatpur    8560934380  Active  17-05-2016    0.00 
530 3494 Bhedram 2014-CMS eMitra-Bharatpur V PO Bhandara Teh. Kaman Bharatpur    9672110566  Active  20-05-2016    28.48  0.00 
531 3495 Mohammad Ali Khan 2014-CMS eMitra-Bharatpur Emitra Pay PointGram Birgawan Fetehpur Kalan Nagar Bharatpur    9610567121  Active  23-05-2016    0.00 
532 3496 Aslam Khan 2014-CMS eMitra-Bharatpur Emitra Pay PointGram Somsi Fetehpur Kalan Nagar Bharatpur    7665375275  Active  23-05-2016    0.00 
533 3497 Dharam Singh 2014-CMS eMitra-Bharatpur Salempur Khurd, Bharatpur.    7665905955  Active  23-05-2016    0.00 
534 3498 Puspendra Singh 2014-CMS eMitra-Bharatpur Vill. Bagh Ka Nagla.Talphara,Kumher  Bharatpur.   8890666151  Active  23-05-2016    0.00 
535 3499 Gopesh Kumar Jatav 2014-CMS eMitra-Bharatpur Emitra Pay PointGram Uloo Kamalpura Bhusawar Bharatpur    9166708911  Active  23-05-2016    0.00 
536 3500 Omprakash 2014-CMS eMitra-Bharatpur Emitra Pay PointGram Jindpura Baridha Roopwas Bharatpur     8740052097  Active  23-05-2016    0.00 
537 3501 Bachchu Singh 2014-CMS eMitra-Bharatpur Emitra Pay Point Bhagora Lakhanpur Weir Bharatpur    9602599476  Active  23-05-2016    0.00 
538 3502 Ajeet Kumar 2014-CMS eMitra-Bharatpur Emitra Pay PointGram Gunsara Kumher Bharatpur    7792826642  Active  23-05-2016    0.00 
539 3503 Mahendra Singh 2014-CMS eMitra-Bharatpur Emitra Pay Point Gram Vijay Nagar Rundh Helak Bharatpur     9783184960  Active  23-05-2016    0.00 
540 3504 Asalam Khan 2014-CMS eMitra-Bharatpur Emitra Pay Point Gram Veerthala Mudoti Nagar Bharatpur    9928212380  Active  23-05-2016    0.00 
541 3657 Akram 2014-CMS eMitra-Bharatpur Emitra Pay PonitGram Paltoo Thun Nagar Bharatpur    9928212380  Active  07-07-2016    0.00 
542 3658 Amrit Singh 2014-CMS eMitra-Bharatpur Emitra Pay Point Gram Khadraya Bhesina Bharatpur    8432369788  Active  07-07-2016    0.00 
543 3659 Mahendra Singh 2014-CMS eMitra-Bharatpur Emitra Pay Point Gram Saindoli Nadbai Bharatpur    8058120129  Active  08-07-2016    .51  0.00 
544 3668 Vierendra Kumar 2014-CMS eMitra-Bharatpur Emitra Kiosk Tilak Nagar Bharatpur    8875785698  Active  08-07-2016    .17  0.00 
545 3669 Shubham Kumar Saini 2014-CMS eMitra-Bharatpur Out Side B Narayan Gate Kaccha Kunda Ghana Road Bharatpur    8502966929  100  Active  08-07-2016    226.53  0.00 
546 3670 Kuldeep Singh 2014-CMS eMitra-Bharatpur Main Market Kumher Bharatpur    9460075143  25  Active  08-07-2016    233.46  0.00 
547 3671 Raju 2014-CMS eMitra-Bharatpur Rathi Studio Binarayan Gate Bharatpur    9983940515  595  Active  08-07-2016    113.87  0.00 
548 3685 Jitendra Kumar 2014-CMS eMitra-Bharatpur Brij Nagar Bharatpur    9784986859  369  Active  18-07-2016    24.83  0.00 
549 833 pradlad shing 2014-Vakrangee-Bharatpur jaya usrani kumher bharatpur   9667039751  843  Active  02-09-2014    83.42  0.00 
550 834 moti ram 2014-Vakrangee-Bharatpur khan khera dist:- bharatpur   8890214708  Active  02-09-2014    .56  0.00 
551 836 pushp lata 2014-Vakrangee-Bharatpur vpo-jharonti block-weit bharatpur  9414681595  Active  02-09-2014    .28  0.00 
552 837 Shyambeer Chauhan 2014-Vakrangee-Bharatpur vpo-kharera block:-rupbas bharatpur  9414975080  Active  02-09-2014    -.09  0.00 
553 838 radhe shyam 2014-Vakrangee-Bharatpur singhara block bayana bharatpur  9887368316  29  Active  02-09-2014    827.16  275.48 
554 839 Pramod Kumar 2014-Vakrangee-Bharatpur VPO - Siras BLOCK - Weirs Dist - Bharatpur  9887223330  Active  03-09-2014    .36  0.00 
555 844 Raj kumar 2014-Vakrangee-Bharatpur VPO - Reethauthi Block - Kunher Dist - Bharatpur  9783924366  82  Active  03-09-2014    403.23  0.00 
556 848 Ravindra Kumar Meena 2014-Vakrangee-Bharatpur VPO- Chaintoli, Block - Weir Dist. - Bharatpur  9468666284  1417  Active  04-09-2014    215.83  57.39 
557 849 Ashok Lawaniya 2014-Vakrangee-Bharatpur VPO- Halena,  Block - Weir Dist. - Bharatpur  9414903955  1042  Active  04-09-2014    613.09  160.70 
558 850 Uttam Singh 2014-Vakrangee-Bharatpur nagla Tehriy An Mafi F/P-N Tehriy A Mafi Block - Rupbas Disst. - Bharatpur  9828911272  Active  04-09-2014    238.63  0.00 
559 852 Raju Singh 2014-Vakrangee-Bharatpur Takha, G/P - Ta Kha  block - Kumher Disst. - Bharatpur  9694341720  127  Active  04-09-2014    141.23  0.00 
560 853 Lokesh Kumar 2014-Vakrangee-Bharatpur Kot  Bayana Bharatpur  9799320408  Active  04-09-2014    -1734.56  0.00 
561 854 Prathveeraj 2014-Vakrangee-Bharatpur Baroda Ayana Disst. - Bhartpur  8003686804  12  Active  04-09-2014    45.13  0.00 
562 903 Gaurav Kumar 2014-Vakrangee-Bharatpur VPO- Khandewla Block - Nagar Dist. - Bharatpur  9461080611  Active  17-09-2014    .8  0.00 
563 904 Haripal 2014-Vakrangee-Bharatpur Ward No. 13  Naharganj mohalla Kumher Bharatpur  9460659190  1549  Active  17-09-2014    105.85  0.00 
564 905 Naresh Kumar Sharma 2014-Vakrangee-Bharatpur Gangora, Nagar Bharatpur  8094577032  Active  17-09-2014    .06  0.00 
565 906 Rajesh Kumar 2014-Vakrangee-Bharatpur Nagla Heeradas, Opp Numaish Ground Bharatpur  9309314407  Active  17-09-2014    .21  14.35 
566 922 PRADEEP SINGH 2014-Vakrangee-Bharatpur Ward no 16 Neeraj Mishthan Bhandhar Ke Pichhe Kumher Bhartpur   9166545061  483  Active  19-09-2014    .64  286.96 
567 925 Poonam Chand Saini 2014-Vakrangee-Bharatpur Barauli  Weir,Bharatpur   9782754965  Active  20-09-2014    .58  0.00 
568 926 Rajendra Kumar Sharma 2014-Vakrangee-Bharatpur Sharma Computers, Khodi Mod Deeg Road, Nagar Bharatpur  9828537748  1264  Active  20-09-2014    345.49  0.00 
569 935 Bhagwan Singh Meena 2014-Vakrangee-Bharatpur Barkhera  Bayana Bharatpur  9414890478  104  Active  26-09-2014    2102.38  81.30 
570 936 Anil Kumar Mathur 2014-Vakrangee-Bharatpur Mathur Internet & Emitra Center Basan Gate Kotwali Bharatpur  9571511899  272  Active  26-09-2014    24.94  23.91 
571 937 Khushi Ram 2014-Vakrangee-Bharatpur Nagla Beeja Rupbas Bharatpur  9784309994  40  Active  26-09-2014    624.15  4.78 
572 938 RAJENDRA DAGUR 2014-Vakrangee-Bharatpur Dagur emitra V/P nagar Teh- nagar near govt hospital Bhartpur   9667175659  Active  26-09-2014    1261.55  0.00 
573 939 Sanjay Singh 2014-Vakrangee-Bharatpur Peepla Sewar Bharatpur  9782599434  Active  26-09-2014    .11  0.00 
574 941 SHER SINGH 2014-Vakrangee-Bharatpur Cheema emitra Nand Hotel ke pass ward no 19 Bhartpur   9828580712  Active  26-09-2014    .65  0.00 
575 943 JUGAL BIHARI 2014-Vakrangee-Bharatpur Purohit emitra center kotwali bazar near sitaramji mandir Bhartpur   9783319205  Active  26-09-2014    .44  0.00 
576 945 SANJAY KUMAR 2014-Vakrangee-Bharatpur Sanjay emitra Ward no 05 Near Panchyat Samiti Sewar Bhartpur   9928816222  Active  26-09-2014    89.24  0.00 
577 959 Shiv Kumar Sharma 2014-Vakrangee-Bharatpur Marauli, Rupbas Bharatpur   9785719204  265  Active  08-10-2014    16.85  19.13 
578 969 Paras Ram Saini 2014-Vakrangee-Bharatpur Near Bus Stand Deeg Bharatpur   9529003555  430  Active  09-10-2014    -.73  0.00 
579 971 Rakesh 2014-Vakrangee-Bharatpur Sarvodya Nagar,ricco Road Bharatpur   9782505906  Active  09-10-2014    .08  0.00 
580 1024 Manoj Kumar 2014-Vakrangee-Bharatpur Kumher Road Bohra Market,Bharatpur    9983664711  Active  29-10-2014    202.02  0.00 
581 1025 Kali Charan 2014-Vakrangee-Bharatpur Jahangeerpur,Nadbai,Bharatpur     9602761341  Active  29-10-2014    -1904.49  0.00 
582 1026 Parasram 2014-Vakrangee-Bharatpur Talchhera,Nadbai,Bharatpur    9667865574  Active  29-10-2014    35.33  0.00 
583 1049 Bhupendra Singh 2014-Vakrangee-Bharatpur Padawali,Bayana Bharatpur   9636059531  Active  21-11-2014    .38  0.00 
584 1054 Hemendra Kumar 2014-Vakrangee-Bharatpur VPO-Dandoo,Block-Kumher Distt.-Bharatpur   9785202112  Active  21-11-2014    .77  0.00 
585 1055 Jitendra Singh 2014-Vakrangee-Bharatpur VPO-Thana Dang,Block-Bayana Distt.-Bharatpur   8740979934  Active  22-11-2014    -645.54  0.00 
586 1056 Irfan 2014-Vakrangee-Bharatpur VPO-Nagla Kundan,Block-Kaman Distt.-Bharatpur   9982562793  Active  22-11-2014    .33  0.00 
587 1063 Jagat Singh 2014-Vakrangee-Bharatpur VPO-Karwari,Block-Bayana Distt.-Bharatpur   9875036609  Active  25-11-2014    -193.42  0.00 
588 1071 Saurabh Godha 2014-Vakrangee-Bharatpur Near Kotwali,Chauturja Bharatpur   9509618018  1817  Active  26-11-2014    99.1  264.00 
589 1084 Sarita 2014-Vakrangee-Bharatpur Bahra Rekhapur,Rupbas Bharatpur   8058592215  266  Active  27-11-2014    592.07  38.26 
590 1085 Kapil Goyal 2014-Vakrangee-Bharatpur BAYANA, BHARATPUR   RAJASTHAN,PIN CODE NO - 321401 undefined  9667548958  Active  27-11-2014    .08  0.00 
591 1087 Hemant Kumar 2014-Vakrangee-Bharatpur Nigohi,Deeg Bharatpur   8239774703  Active  27-11-2014    -.35  0.00 
592 1089 Raju Pachahara 2014-Vakrangee-Bharatpur Bandha Chauth,Deeg Bharatpur   9413590442  Active  27-11-2014    .89  0.00 
593 1091 Ravi Kumar 2014-Vakrangee-Bharatpur Nahroli Deshwar,Shishwada Deeg,Bharatpur undefined  8875023730  331  Active  27-11-2014    3.67  0.00 
594 1104 Narendra Kumar 2014-Vakrangee-Bharatpur VPO-Sedpura,Block-Rupbas Distt.-Bharatpur   05645276427  Active  04-12-2014    .31  0.00 
595 1114 Bhag Chand Saini 2014-Vakrangee-Bharatpur Chak Dharsoni,Block-Weir Distt.-BhAratpur   9414758409  1170  Active  11-12-2014    257.83  26.78 
596 1116 Rajkumar 2014-Vakrangee-Bharatpur Malipura,Sewar Bharatpur   9782734407  Active  11-12-2014    276.59  0.00 
597 1128 Harish Kumar 2014-Vakrangee-Bharatpur VPO-Rarah,Block-Kumher Distt.-Bharatpur   9782506026  922  Active  18-12-2014    961.28  57.39 
598 1129 Areef Khan 2014-Vakrangee-Bharatpur Malki,Nagar Bharatpur   9828171290  10  Active  18-12-2014    3706.37  0.00 
599 1136 Jitendra Singh 2014-Vakrangee-Bharatpur Village Nonera Thesil Kaman    7690908990  60  Active  19-12-2014    1250.89  9.57 
600 1137 Rahul Bansal 2014-Vakrangee-Bharatpur Mangal Colony Rudaval    9875203203  Active  19-12-2014    134.01  0.00 
601 1138 Hardev Singh 2014-Vakrangee-Bharatpur Village Januthar Deeg Bharatpur    8504925138  Active  19-12-2014    .17  0.00 
602 1139 Ved Prakash Saini 2014-Vakrangee-Bharatpur Near Tehsil Kaman    05641230758  Active  19-12-2014    -289.03  0.00 
603 1140 Hitesh Garg 2014-Vakrangee-Bharatpur Jurhera Kaman    9549677294  389  Active  19-12-2014    195.82  0.00 
604 1219 Rajveer Singh 2014-Vakrangee-Bharatpur RARODA , KHAN KHEDA  BAYANA ,BHARATPUR undefined  9828835905  106  Active  22-12-2014    331.55  0.00 
605 1221 Shailender Kumar Saini 2014-Vakrangee-Bharatpur Nai Sadak Deeg    05641220230  55  Active  23-12-2014    .81  0.00 
606 1232 Ashish Kumar 2014-Vakrangee-Bharatpur VPO-Gurdha Nadi,Block-Bayana Distt.-Bharatpur   8290557872  Active  26-12-2014    .95  0.00 
607 1238 Ram Babu 2014-Vakrangee-Bharatpur Near Chotala Ki Shop  Subhash Nagar Bharatpur   9680834848  Active  29-12-2014    .82  0.00 
608 1239 Hem Kumar 2014-Vakrangee-Bharatpur Bhuda Gate Deeg    05641220016  88  Active  29-12-2014    731.65  38.26 
609 1240 Gulshan Sharma 2014-Vakrangee-Bharatpur Rajiv Gandhi Seva Kendra Village Post Bachhmadi(Noh)Bharatpur    7611851998  Active  29-12-2014    -98.98  23.91 
610 1242 Suneel Kumar 2014-Vakrangee-Bharatpur INFRONT OF SBBJ BANK, ARYA SAMAJ ROAD  BAYANA, BHARATPUR undefined  8432663479  32  Active  07-01-2015    20.7  0.00 
611 1243 Subran Singh 2014-Vakrangee-Bharatpur JANOOTHAR, TEHSIL - DEEG  BHARATPUR   9829547617  Active  07-01-2015    .38  0.00 
612 1247 Navdeep Singh 2014-Vakrangee-Bharatpur RAJIV GANDHI KENDRA KHER,BAYANA BHARATPUR(RAJASTHAN)   9694716874  Active  07-01-2015    .41  0.00 
613 1248 Raju Lal 2014-Vakrangee-Bharatpur Ghor Mahua Sawer    7891035727  57  Active  07-01-2015    510.52  19.13 
614 1262 Manish Chhabra 2014-Vakrangee-Bharatpur SHIV NAGAR, BEHING SINGHAL OIL MILL  BHARATPUR   8854878487  265  Active  10-01-2015    903.62  0.00 
615 1264 Akhalesh Kumar 2014-Vakrangee-Bharatpur GARG CYBER ZONE, ATALBAND  BHARATPUR   9549973808  Active  10-01-2015    .87  0.00 
616 1268 Mohit Kumar 2014-Vakrangee-Bharatpur Near Pashu Hosptal, Kachahari Road  Bharatpur   9461868469  -460  Active  12-01-2015    .18  0.00 
617 1280 Girish Kumar 2014-Vakrangee-Bharatpur INFRONT OF SAMUDAYAK BHAWAN, RIICO ROAD  BHARATPUR   8952043136  200  Active  16-01-2015    .67  0.00 
618 1289 Dharmender Singh 2014-Vakrangee-Bharatpur VPO-Pali,Block-Weir Distt.-Bharatpur   9928134310  Active  21-01-2015    .72  0.00 
619 1290 Sakir Husain 2014-Vakrangee-Bharatpur Ladamka,Nagar Bharatpur   9772603960  37  Active  21-01-2015    176.21  19.13 
620 1291 Ganga Singh Yadav 2014-Vakrangee-Bharatpur VPO-Dhilawati,Block-Kaman Distt.-Bharatpur   7568257478  Active  21-01-2015    .95  0.00 
621 1292 Ram Gopal 2014-Vakrangee-Bharatpur INFRONT OF MSJ COLLAGE, BHARATPUR    9782290010  Active  21-01-2015    12.63  0.00 
622 1295 Mohini Dubey 2014-Vakrangee-Bharatpur Behind Kendriya Bus Stand, Bharatpur    8058276502  159  Active  22-01-2015    86.99  19.13 
623 1298 Sachin Khandelwal 2014-Vakrangee-Bharatpur Deeg Road Kumher    9024221353  3136  Active  22-01-2015    687.76  233.39 
624 1299 Lokesh Singh 2014-Vakrangee-Bharatpur Village Toda Post Hingota Deeg Bharatpur     8441097557  750  Active  22-01-2015    1502.5  0.00 
625 1300 Nagendra Singh 2014-Vakrangee-Bharatpur Village Jatoli Thoon Deeg Bharatpur    8239320003  Active  22-01-2015    .08  0.00 
626 1301 Akhalesh Kumar 2014-Vakrangee-Bharatpur Near Lal Darbaja Bayana Bharatpur    9672575195  Active  22-01-2015    -5.98  0.00 
627 1302 Manoj Kumar 2014-Vakrangee-Bharatpur Ward-08,Vijay Nagar Colony Bharatpur   9785050703  50  Active  22-01-2015    271.51  76.52 
628 1304 Ranjeet Singh 2014-Vakrangee-Bharatpur IT KENDRA, HATHAINI  BLOCK- SEWAR, BHARATPUR undefined  9887962044  1791  Active  22-01-2015    1161.89  38.26 
629 1305 Rameshwar 2014-Vakrangee-Bharatpur IT KENDRA, GHUSHYARI  BLOCK- SEWAR, BHARATPUR undefined  8290556585  11  Active  22-01-2015    126.88  0.00 
630 1306 Gaurav Kumar 2014-Vakrangee-Bharatpur Anah Gate Pather Ki Taal Bharatpur    9887126355  15  Active  23-01-2015    258.52  38.26 
631 1318 Govind 2014-Vakrangee-Bharatpur SHERGADH,BAYANA BHARATPUR   9413312658  27  Active  30-01-2015    101.83  19.13 
632 1326 Niranjan Lal Gauttam 2014-Vakrangee-Bharatpur 31,Kalyan Mauhlla Kaman,Bharatpur undefined  9828025135  404  Active  03-02-2015    3.87  0.00 
633 1327 Ramesh Singh 2014-Vakrangee-Bharatpur VIL-KHANSWARA POST -PAPRERA TEH-KUMHER DIST-BHARATPUR    9636191024  294  Active  03-02-2015    1926.4  0.00 
634 1328 Dinesh Kumar 2014-Vakrangee-Bharatpur Dinesh Emitra,Infront Of MSJ Collage Bharatpur,Bharatpur undefined  9649103299  492  Active  03-02-2015    .46  19.13 
635 1330 Prem Singh 2014-Vakrangee-Bharatpur IT KENDRA, JHAROLI  BLOCK - SEWAR, BHARATPUR undefined  8952013367  Active  03-02-2015    -16.3  0.00 
636 1336 Mubarik 2014-Vakrangee-Bharatpur VPO Bhonri The. Pahari Bharatpur    9587773344  Active  03-02-2015    187.35  0.00 
637 1337 Rashid 2014-Vakrangee-Bharatpur Village Nandera Teh. Kaman Bharatpur    8094509630  Active  03-02-2015    -1347.45  0.00 
638 1362 Hari Das 2014-Vakrangee-Bharatpur BEHIND PHOOL SINGH TANT HOUSE, HEERADAS  BHARATPUR   9887540721  46  Active  05-02-2015    7.13  0.00 
639 1363 Ajay Singh 2014-Vakrangee-Bharatpur IT KENDRA, MOROLI KALAN  TEH. & DISTRICT - BHARATPUR   9694235107  Active  05-02-2015    -1554.97  0.00 
640 1364 Prashan Kumar 2014-Vakrangee-Bharatpur IT KENDRA, BILOTHI  TEHSIL & DISTRICT - BHARATPUR   8696620636  Active  05-02-2015    -106.92  0.00 
641 1366 Neeraj Kumar Sharma 2014-Vakrangee-Bharatpur Kaman Bypass Road Neem Ghata Mohalla Deeg    9414695025  Active  06-02-2015    .72  0.00 
642 1367 Kapil Khandelwal 2014-Vakrangee-Bharatpur SHRI RADHE COMMUNICATION, NEW MANDI  BHARATPUR   8890525962  109  Active  06-02-2015    44.12  19.13 
643 1370 Surjeet Singh 2014-Vakrangee-Bharatpur NEWADA, WEIR  BHARATPUR   9928002775  Active  06-02-2015    .09  0.00 
644 1371 Braj Gopal 2014-Vakrangee-Bharatpur ALIPUR, BHUSAWAR BHARATPUR   8290853081  Active  06-02-2015    19.79  0.00 
645 1372 Rakesh Kumar 2014-Vakrangee-Bharatpur RUNDH IKRAN,SEWAR  BHARATPUR   8432670342  Active  06-02-2015    .47  0.00 
646 1373 Harish Kumar 2014-Vakrangee-Bharatpur V & P - JAGHINA, BHARATPUR    9509847007  2043  Active  06-02-2015    2.86  91.83 
647 1374 Vishambhar Singh 2014-Vakrangee-Bharatpur Tyohari,Weir Bharatpur   9414388760  Active  06-02-2015    .89  0.00 
648 1375 Govind Sharan 2014-Vakrangee-Bharatpur MAIN BAZAR, OLD SABJI MANDI  DEEG, BHARATPUR undefined  8290540930  Active  06-02-2015    35.08  0.00 
649 1380 Ramakant Sharma 2014-Vakrangee-Bharatpur Sirrond,Rupbas Bharatpur   9982679225  Active  11-02-2015    .94  23.91 
650 1382 Rahul Saini 2014-Vakrangee-Bharatpur VPO-Jhanjhar,Block-Nagar Distt.-Bharatpur   8875023726  Active  12-02-2015    .83  0.00 
651 1388 Lalit Kumar 2014-Vakrangee-Bharatpur NEAR SARAS CHAURAHA, VIJAY NAGAR  BHARATPUR   8058845059  104  Active  18-02-2015    74.69  0.00 
652 1401 Gajendra Singh Chandel 2014-Vakrangee-Bharatpur अटल सेवा केंद्र ग्राम गुहाना तहसील डीग जिला भरतपुर    9694826177  Active  19-02-2015    1068.85  0.00 
653 1402 Rahul Dev 2014-Vakrangee-Bharatpur WARD NO. 03, PAHARI  BHARATPUR   950953507  690  Active  19-02-2015    1379.72  99.48 
654 1404 Ram Kishan 2014-Vakrangee-Bharatpur V&P- JATOLI RATHBHAN, BLOCK- SEWAR  BHARATPUR   8432422135  10  Active  19-02-2015    154.92  0.00 
655 1409 Vikas Kumar Khandelwal 2014-Vakrangee-Bharatpur Rajiv Gandhi Seva Kendra Panhori    8058926340  20  Active  19-02-2015    134.97  0.00 
656 1410 Umesh Chand 2014-Vakrangee-Bharatpur V&P PAR, BLOCK- SEWAR  BHARATPUR   9887750088  Active  19-02-2015    .58  0.00 
657 1411 Dhanpal Singh 2014-Vakrangee-Bharatpur V&P- KATHAUL, PAHARI  BHARATPUR   9680428449  123  Active  19-02-2015    28.96  0.00 
658 1448 Mahendra Singh 2014-Vakrangee-Bharatpur VPO-HATEEJAR TEH WEIR DIST BHARATPUR    9414654341  40  Active  11-03-2015    94.03  0.00 
659 1462 Manoj Kumar 2014-Vakrangee-Bharatpur Pingora, Nadbai  Bharatpur   9166679417  Active  17-03-2015    .89  0.00 
660 1517 CSC Sinsini 2014-Vakrangee-Bharatpur Village - Sinsini Block - Deeg,GP -Sinsini Tehsil - Deeg  9024261121  Active  26-03-2015    .55  0.00 
661 1518 CSC Bahaj 2014-Vakrangee-Bharatpur Village - Bahaj block - Deeg,GP-Bahaj Tehsil - Deeg  9783105695  1607  Active  26-03-2015    410.43  237.22 
662 1519 CSC Hantra 2014-Vakrangee-Bharatpur Village - Hantra Block - Nadbai, GP -Hantra Tehsil - Nadbai  9887241930  372  Active  26-03-2015    82.98  38.26 
663 1520 CSC Rudawal 2014-Vakrangee-Bharatpur Village - Rudawal Block - Rupbas,GP -Rudawal Tehsil - Rupbas  05645274384  150  Active  26-03-2015    .97  110.96 
664 1522 CSC Chiksana 2014-Vakrangee-Bharatpur Village - Chiksana Block - Sewar,GP -Chiksana Tehsil -Bharatpur  9828294579  739  Active  26-03-2015    178.85  53.57 
665 1524 CSC Kamalpura 2014-Vakrangee-Bharatpur Village - Kamalpura Block - Weir,GP -Kamalpura Tehsil - Weir  9785203822  Active  26-03-2015    .54  0.00 
666 1525 CSC Moloni 2014-Vakrangee-Bharatpur Village - Moloni Block - Weir,GP -Moloni Tehsil - Weir  7568357181  Active  26-03-2015    .48  0.00 
667 1526 CSC Bajhera Kalan 2014-Vakrangee-Bharatpur Village - Bajhera Kalan Block - Weir,GP- Bjera Kalan Tehsil - Bharatpur  9460324222  Active  26-03-2015    .49  0.00 
668 1527 CSC Deewali 2014-Vakrangee-Bharatpur Village - Deewali Block -Weir,GP -Divli Tehsil - Weir  7742053693  Active  26-03-2015    2.1  0.00 
669 1529 CSC Rupbas 2014-Vakrangee-Bharatpur Village - Rupbas Block - Rupbas,GP -Rupbas Tehsil - Rupbas  05645-273027  Active  26-03-2015    .52  0.00 
670 1530 CSC Chhokarwara Kalan 2014-Vakrangee-Bharatpur Village - Chhokarwara Kalan Block - Weir Bharatpur  9785358031  Active  26-03-2015    -727.66  0.00 
671 1531 CSC Mai 2014-Vakrangee-Bharatpur Village - Mai  Block - Nadbai Bharatpur  9783015108  1431  Active  26-03-2015    306.06  0.00 
672 1532 CSC barauli Chhar 2014-Vakrangee-Bharatpur Village-Barauli Chhar Block-Nadbai Bharatpur  9660985921  385  Active  26-03-2015    1369.64  19.13 
673 1534 CSC pahari 2014-Vakrangee-Bharatpur Village-Pahari Block-Nagar Bharatpur  8890198658  548  Active  26-03-2015    .81  0.00 
674 1536 CSC ludhabai 2014-Vakrangee-Bharatpur Village-Ludhabai Block-Sewar Bharatpur  9166767525  1163  Active  26-03-2015    1094.82  153.04 
675 1539 CSC Kanawar 2014-Vakrangee-Bharatpur Village - Kanawar Block - Bayana Bharatpur  9828300711  1620  Active  26-03-2015    486.76  0.00 
676 1540 CSC Janoothar 2014-Vakrangee-Bharatpur Village-Janoothar Block-Deeg Bharatpur  7597797506  Active  26-03-2015    -1554.16  0.00 
677 1542 CSC Bahnera 2014-Vakrangee-Bharatpur Village-Bahnera Block-Sewar Bharatpur  8003056955  80  Active  26-03-2015    17.23  0.00 
678 1545 CSC Seedpur 2014-Vakrangee-Bharatpur Village - Seedpur Block - Bayana Bharatpur  9799081802  Active  26-03-2015    .93  0.00 
679 1547 CSC Sikrori 2014-Vakrangee-Bharatpur Village - Sikrori Block - Kumher Bharatpur  9414327298  Active  26-03-2015    .41  0.00 
680 1550 CSC Gulpara 2014-Vakrangee-Bharatpur Village - Gulpara Block - Nagar,GP -Gulpada Tehsil - Nagar  9649498388  Active  26-03-2015    .04  0.00 
681 1551 Csc Khera Thakur 2014-Vakrangee-Bharatpur Village-Khera Thakur Block-Rupbas District-Bharatpur   8824365595  103  Active  26-03-2015    195.92  0.00 
682 1552 Csc Sarsaina 2014-Vakrangee-Bharatpur Village-Sarsaina Block-Weir District-Bharatpur  9636305014  Active  26-03-2015    .83  0.00 
683 1553 Csc Bhatpura 2014-Vakrangee-Bharatpur Village-Bhatpura Block-Nagar District-Bharatpur  9672172461  2110  Active  26-03-2015    23.96  0.00 
684 1555 Csc Seekri Chak No 1 2014-Vakrangee-Bharatpur Village-Seekri Chak No.1 Block-Nagar District-Bharatpur  9950750001  2102  Active  26-03-2015    984.9  57.39 
685 1556 CSC Palka 2014-Vakrangee-Bharatpur Village - Palka Block - Nagar,GP -Palka Tehsil - Nagar  9828229302  Active  26-03-2015    .62  0.00 
686 1558 CSC Bedham 2014-Vakrangee-Bharatpur Village - Dedham Block - Deeg,GP - Baidam Tehsil - Deeg  9887050988  Active  26-03-2015    .36  0.00 
687 1560 CSC Samogar 2014-Vakrangee-Bharatpur ATAL SEVA KENDRA SAMOGAR,  TEH-BAYANA, DISTRICT- BHARATPUR   9414485885  105  Active  26-03-2015    121.35  0.00 
688 1561 CSC Ubar 2014-Vakrangee-Bharatpur Village- Ubar Block- Kumher District- Bharatpur  9782276183   686  Active  26-03-2015    1930.82  0.00 
689 1563 CSC Seekri Chak No 2 2014-Vakrangee-Bharatpur Village- Seekri Chak No 2 Block- Nagar District- Bharatpur  9413994113  Active  26-03-2015    .25  0.00 
690 1564 CSC Berroo 2014-Vakrangee-Bharatpur Village- Berroo Block- Nagar District- Bharatpur  9983740637  Active  26-03-2015    -1100.35  0.00 
691 1565 CSC Shahna 2014-Vakrangee-Bharatpur Village - Shahna Block - Rupbas,GP -Sahna Tehsil - Rupbas  8058592215  Active  26-03-2015    .69  0.00 
692 1571 CSC Dehgawan 2014-Vakrangee-Bharatpur Village- Dehgawan  Block- Bayana  District- Bharatpur  9887919379  183  Active  26-03-2015    67.55  221.91 
693 1572 CSC Paramdara 2014-Vakrangee-Bharatpur Village- Paramadara Block- Deeg District- Bharatpur  9413227228  Active  26-03-2015    .35  0.00 
694 1575 CSC Baroli Chauth 2014-Vakrangee-Bharatpur Village- Baroli Chauth  Block- Deeg  District- Bharatpur  9950866507  1433  Active  26-03-2015    484.95  0.00 
695 1577 CSC Satwas 2014-Vakrangee-Bharatpur Village- Satwas  Block- Kaman  District- Bharatpur   9982321410  Active  26-03-2015    -37.65  0.00 
696 1578 CSC Moonsepur 2014-Vakrangee-Bharatpur Village- Moonsepur  Block- Kaman  District- Bharatpur   9001892350  17  Active  26-03-2015    810.53  0.00 
697 1579 CSC Jurhara 2014-Vakrangee-Bharatpur Village- Jurhara  Block- Kaman  District- Bharatpur  9413878652  Active  26-03-2015    -1027.96  0.00 
698 1581 CSC Kathaul 2014-Vakrangee-Bharatpur Village- Kathaul  Block- Kaman  District- Bharatpur   9509535906  92  Active  26-03-2015    2674.19  0.00 
699 1582 CSC Birharu 2014-Vakrangee-Bharatpur Village- Birharu  Block- Kumher  District- Bharatpur  9785037811  951  Active  26-03-2015    5.51  0.00 
700 1584 CSC Lakhan 2014-Vakrangee-Bharatpur Village- Lakhan  Block- Kumher  District- Bharatpur  9602406517  818  Active  26-03-2015    99.8  0.00 
701 1585 CSC Borai 2014-Vakrangee-Bharatpur Village- Borai  Block- Kumher  District- Bharatpur   9694199137  Active  26-03-2015    .18  0.00 
702 1586 CSC Kurka 2014-Vakrangee-Bharatpur Village- Kurka  Block- Rupbas  District- Bharatpur  9783284432  Active  26-03-2015    403.45  0.00 
703 1587 CSC Malah 2014-Vakrangee-Bharatpur Village- Malah  Block- Sewar  District- Bharatpur   9001668134  Active  26-03-2015    39.05  0.00 
704 1591 CSC KORER 2014-Vakrangee-Bharatpur Village KORER  Block DEEG  District BHARATPUR   9783156574  443  Active  26-03-2015    50.32  0.00 
705 1596 CSC Shakkarpur 2014-Vakrangee-Bharatpur Village Shakkarpur  Block RUPBAS  District BHARATPUR   9462355422  Active  26-03-2015    .79  0.00 
706 1600 CSC Siras 2014-Vakrangee-Bharatpur Village Siras   Block WEIR  District BHARATPUR   9460877014  Active  26-03-2015    .67  0.00 
707 1601 CSC Bhaiseena 2014-Vakrangee-Bharatpur Village Bhaiseena  Block WEIR  District BHARATPUR   9214944095  Active  26-03-2015    .09  0.00 
708 1602 CSC Samraya 2014-Vakrangee-Bharatpur Village Samraya  Block WEIR  District BHARATPUR   9667808828  Active  26-03-2015    -23.44  0.00 
709 1604 CSC HATAURI 2014-Vakrangee-Bharatpur Village HATAURI   Block WEIR   District BHARATPUR   000000000000  933  Active  26-03-2015    420.66  26.78 
710 1606 CSC Barah Mafi 2014-Vakrangee-Bharatpur Village - Barah Mafi Block - Rupbas GP - Barah Mafi  9680805312  Active  26-03-2015    .73  0.00 
711 1609 CSC Sahsan 2014-Vakrangee-Bharatpur Village Sahsan  Block KAMAN  District BHARATPUR   96101000045  Active  26-03-2015    -1219.98  0.00 
712 1610 CSC Pichoomar 2014-Vakrangee-Bharatpur Village Pichoomar  Block KUMHER  District BHARATPUR   7737100184  118  Active  26-03-2015    465.05  0.00 
713 1611 CSC Peepal Khera 2014-Vakrangee-Bharatpur Village Peepal Khera  Block NAGAR  District BHARATPUR   9772404014  129  Active  26-03-2015    1847.37  0.00 
714 1614 CSC Aghapur 2014-Vakrangee-Bharatpur Village Aghapur  Block SEWAR  District BHARATPUR   9549249946  Active  26-03-2015    .42  0.00 
715 1615 CSC Moondota 2014-Vakrangee-Bharatpur Village MOONDOTA   Block SEWAR   District BHARATPUR   9887482598  Active  26-03-2015    -372.98  0.00 
716 1616 CSC Jahanpur 2014-Vakrangee-Bharatpur Village- Jahanpur Block- Weir  District- Bharatpur   9694265999  Active  26-03-2015    -1428.88  0.00 
717 1618 CSC Samai 2014-Vakrangee-Bharatpur Village Samai  Block DEEG  District BHARATPUR   9509535226  Active  26-03-2015    1638.93  0.00 
718 1620 CSC Pai 2014-Vakrangee-Bharatpur Village Pai  Block KAMAN  District BHARATPUR   9413309008  Active  26-03-2015    -1976.54  0.00 
719 1622 CSC Gopalgarh 2014-Vakrangee-Bharatpur Village Gopalgarh  Block NAGAR  District BHARATPUR   9983757532  Active  26-03-2015    .44  0.00 
720 1624 CSC Dahina Gaon 2014-Vakrangee-Bharatpur Village Dahina Gaon  Block RUPBAS  District BHARATPUR   9983650149  Active  26-03-2015    .18  0.00 
721 1627 CSC Bilang 2014-Vakrangee-Bharatpur Village- Bilang Block- Kaman  District- Bharatpur  8504075123  Active  26-03-2015    63.83  0.00 
722 1628 CSC Koomha (Khumer) 2014-Vakrangee-Bharatpur Village- Koomha  Block- Kumher  District- Bharatpur  9887438336  500  Active  26-03-2015    1160.88  0.00 
723 1631 CSC Taraudar 2014-Vakrangee-Bharatpur Village- Taraudar  Block- Nagar District- Bharatpur  9783527827  Active  26-03-2015    .28  0.00 
724 1632 CSC Tuhiya 2014-Vakrangee-Bharatpur Village- Tuhiya  Block- Sewar  District- Bharatpur  9887934359  60  Active  26-03-2015    318.5  0.00 
725 1633 CSC Naroli 2014-Vakrangee-Bharatpur Village- Naroli Block- Bayana  District- Bharatpur  9799726525  51  Active  26-03-2015    25.89  0.00 
726 1635 CSC Khanuan 2014-Vakrangee-Bharatpur Village - khanuan Block - Rupbas  Bharatpur  8003617737  Active  26-03-2015    -148.84  0.00 
727 1636 CSC Atari 2014-Vakrangee-Bharatpur Village- Atari Block- Nadbai District- Bharatpur  9414377002  200  Active  26-03-2015    521.81  0.00 
728 1637 CSC Iklahra 2014-Vakrangee-Bharatpur Village- Iklahra  Block- Deeg District- Bharatpur  9414711355  10  Active  26-03-2015    142.35  0.00 
729 1638 CSC Karhi 2014-Vakrangee-Bharatpur Village- Karhi Block- Nadbai District- Bharatpur  9950324526  237  Active  26-03-2015    524.73  0.00 
730 1644 CSC Chhichharwari 2014-Vakrangee-Bharatpur Village- Chhichharwari Block- Kaman  District- Bharatpur  9828523499  Active  26-03-2015    .63  0.00 
731 1647 CSC Nyotha 2014-Vakrangee-Bharatpur Village- Nyotha  Block- Nadbai District- Bharatpur  05643275505  204  Active  26-03-2015    147.29  0.00 
732 1649 CSC Kheri Devisingh 2014-Vakrangee-Bharatpur Village- Kheri Devisingh  Block- Nadbai  District- Bharatpur  9887395295  Active  26-03-2015    -1376.54  0.00 
733 1654 CSC Undra 2014-Vakrangee-Bharatpur Village- Undra  Block- Sewar  District- Bharatpur  7742257001  239  Active  26-03-2015    13.24  57.39 
734 1656 CSC Lakhanpur (Weir) 2014-Vakrangee-Bharatpur Village- Lakhanpur Block- Weir  District- Bharatpur  9782635066  Active  26-03-2015    .82  0.00 
735 1657 CSC Moodiya Laleeta 2014-Vakrangee-Bharatpur Village- Moodiya Laleeta Block- Weir  District- Bharatpur  9414758409  Active  26-03-2015    .45  0.00 
736 1660 CSC Jatmasi 2014-Vakrangee-Bharatpur Village JATMASI  Block RUPBAS  District BHARATPUR   8058932026  Active  26-03-2015    .98  0.00 
737 1661 CSC Ajan 2014-Vakrangee-Bharatpur Village Ajan  Block KUMHER  District BHARATPUR   9887687712  4711  Active  26-03-2015    834.23  0.00 
738 1663 CSC Bhatawali 2014-Vakrangee-Bharatpur Village BHATAWALI  Block KUMHER  District BHARATPUR   9530446606  Active  26-03-2015    .26  0.00 
739 1666 CSC Barauli Dhau 2014-Vakrangee-Bharatpur Village- Barauli Dhau Block- Kaman District- Bharatpur  9636033448  Active  26-03-2015    -69.01  0.00 
740 1670 CSC Badri 2014-Vakrangee-Bharatpur Village BADRI  Block DEEG  District BHARATPUR   9875298827  652  Active  26-03-2015    641.66  0.00 
741 1676 CSC Noharda 2014-Vakrangee-Bharatpur Village NOHARDA  Block RUPBAS  District BHARATPUR   9413510642  2721  Active  26-03-2015    7.85  0.00 
742 1677 CSC PHULWARA 2014-Vakrangee-Bharatpur Village PHULWARA  Block SEWAR  District BHARATPUR   05644220663  1287  Active  26-03-2015    .3  229.57 
743 1679 CSC BRAHMAWAD 2014-Vakrangee-Bharatpur Village BRAHMAWAD  Block BAYANA  District BHARATPUR   05648232035  234  Active  26-03-2015    463.27  0.00 
744 1681 CSC Sooti 2014-Vakrangee-Bharatpur Village SOOTI  Block SEWAR  District BHARATPUR   8094749430  Active  26-03-2015    7.69  19.13 
745 1685 CSC Helak 2014-Vakrangee-Bharatpur Village Helak  Block KUMHER  District BHARATPUR   9414889065  Active  26-03-2015    .9  0.00 
746 1686 CSC RANDHEERGARH 2014-Vakrangee-Bharatpur Village RANDHEERGARH  Block WEIR  District BHARATPUR   9828356625  Active  26-03-2015    .07  0.00 
747 1688 CSC Khan Surjapura 2014-Vakrangee-Bharatpur village khan surjapura block rupbas District bharatpur  9929935890  Active  26-03-2015    .82  0.00 
748 1689 CSC Ghatri 2014-Vakrangee-Bharatpur Village Ghatri Block Weir District Bharatpur  000000000000  Active  26-03-2015    .37  0.00 
749 1690 CSC Vaulkhera 2014-Vakrangee-Bharatpur Village Vaulkhera  Block KAMAN  District BHARATPUR   9928280228  Active  26-03-2015    .42  0.00 
750 1691 CSC Daurda 2014-Vakrangee-Bharatpur Village Daurda  Block RUPBAS  District BHARATPUR   7300130706  Active  26-03-2015    2.94  0.00 
751 1696 CSC Pahua 2014-Vakrangee-Bharatpur Village- Pahua  Block- Kumher  District- Bharatpur  9784058944  77  Active  26-03-2015    594.29  0.00 
752 1697 CSC Kakrala 2014-Vakrangee-Bharatpur Village- Kakrala Block- Nagar District- Bharatpur  9828672146  Active  26-03-2015    -148.62  0.00 
753 1698 CSC Dawak 2014-Vakrangee-Bharatpur Village- Dawak Block- Nagar District- Bharatpur  9610562668  535  Active  26-03-2015    349.09  38.26 
754 1700 CSC Andhiyari 2014-Vakrangee-Bharatpur Village- Andhiyari Block- Rupbas District- Bharatpur  9950324410  2513  Active  26-03-2015    1318.05  76.52 
755 1705 CSC Santrook 2014-Vakrangee-Bharatpur Village- Santrook Block- Kumher District- Bharatpur  9982774208  733  Active  26-03-2015    89.09  0.00 
756 1706 CSC Therawar 2014-Vakrangee-Bharatpur Village- Therawar Block- Kumher District- Bharatpur  9772922025  77  Active  26-03-2015    .92  26.78 
757 1710 CSC Nabhera 2014-Vakrangee-Bharatpur Village- Nabhera Block- Rupbas District- Bharatpur  9694147825  Active  26-03-2015    -1834.78  0.00 
758 1711 CSC Padalwas 2014-Vakrangee-Bharatpur Village- Padalwas Block- Nagar District- Bharatpur  9982320886  Active  26-03-2015    -1464.84  0.00 
759 1721 CSC Bodoli 2014-Vakrangee-Bharatpur Village- Bodoli Block- Nagar  District- Bharatpur  9587774983  Active  26-03-2015    .45  172.17 
760 1723 CSC Kasot_WRS 2014-Vakrangee-Bharatpur Village- Kasot Block- Deeg District- Bharatpur  9950306770  542  Active  26-03-2015    4.22  85.13 
761 1726 CSC Khangri_WRS 2014-Vakrangee-Bharatpur Village- Khangri Block- Nadbai District- Bharatpur  9784436739  Active  26-03-2015    114.82  0.00 
762 1729 CSC Daulatgarh 2014-Vakrangee-Bharatpur Village- Daulatgarh Block- Rupbas District- Bharatpur  8058253021  Active  26-03-2015    .74  0.00 
763 1731 CSC Uchchain 2014-Vakrangee-Bharatpur Village - Uchchain Block - Rupbas Dist. - Bharatpur  9928892871  552  Active  26-03-2015    466.04  91.83 
764 1732 CSC Paharpur 2014-Vakrangee-Bharatpur Village - Paharpur Block - Rupbas Dist. - Bharatpur  9610374499  Active  26-03-2015    1207.53  0.00 
765 1733 CSC Rundh Rupbas 2014-Vakrangee-Bharatpur Village - Rundh Rupbas Block - Rupbas Dist. - Bharatpur  0000000  1419  Active  26-03-2015    571.51  0.00 
766 1734 CSC Rupbas_WRS 2014-Vakrangee-Bharatpur Village - Rupbas Block - Rupbas Dist. - Bharatpur  9828863302  Active  26-03-2015    183.23  0.00 
767 1737 CSC NAWLI 2014-Vakrangee-Bharatpur Village-NAWLI BLOCK -BAYANA DIS- BHARATPUR  9001558722  33  Active  26-03-2015    482.33  0.00 
768 1740 CSC BAMANWARI 2014-Vakrangee-Bharatpur Village-BAMANWARI BLOCK -KAMAN DIS- BHARATPUR  9785707577  Active  26-03-2015    .79  0.00 
769 1742 CSC PIPRAU 2014-Vakrangee-Bharatpur Village-PIPRAU BLOCK -NADBAI DIS- BHARATPUR  9166662311  Active  26-03-2015    1099.98  0.00 
770 1743 CSC LAKHANPUR 2014-Vakrangee-Bharatpur Village-LAKHANPUR BLOCK -NADBAI DIS- BHARATPUR  9414214046  Active  26-03-2015    .98  0.00 
771 1745 CSC IBRAHIMPUR 2014-Vakrangee-Bharatpur Village-IBRAHIMPUR BLOCK -RUPBAS DIS- BHARATPUR  9772543150  Active  26-03-2015    75.95  0.00 
772 1746 CSC BANSI KUURD 2014-Vakrangee-Bharatpur Village-BANSI KUURD BLOCK -SEWAR DIS- BHARATPUR  9875008565  90  Active  26-03-2015    210.7  38.26 
773 1747 CSC PATHENA 2014-Vakrangee-Bharatpur Village-PATHENA BLOCK -WEIR DIS- BHARATPUR  9461247513  Active  26-03-2015    .89  0.00 
774 1749 JSS Infotech emitra center 2014-Vakrangee-Bharatpur Near SRS College  Block Kumher  Bharatpur  9950192400  Active  26-03-2015    .25  9.57 
775 1750 Kuldeep Emitra Center 2014-Vakrangee-Bharatpur Infront of Zila Parishad Shop No. 1 Krishana Nagar Bharatpur  9887149141  723  Active  26-03-2015    397.69  26.78 
776 1751 Tamanna Emitra Center 2014-Vakrangee-Bharatpur Shop No. 15 Collectrate Campus Near S.B.B.J Collectrate Branch Bharatpur  000000000  2465  Active  26-03-2015    1739.14  390.26 
777 1752 Anuj eMitra 2014-Vakrangee-Bharatpur 82, Ekta Vihar Colony Sunkh Road Bharatpur  000000000  Active  26-03-2015    82.92  0.00 
778 1754 City eMitra Center 2014-Vakrangee-Bharatpur Near Siki Wale Hanuman Mandir Mandi Alal Bandh  Bharatpur  05644220341  Active  26-03-2015    .68  0.00 
779 1755 Rakesh eMitra Center 2014-Vakrangee-Bharatpur Shop No-1 Near Panchayat Samiti Blcok-Nadbai Bharatpur  05643275050  2652  Active  26-03-2015    .77  767.13 
780 1756 Anil Emitra 2014-Vakrangee-Bharatpur Jain Book Depot Block Bayana District- Bharatpur   05648225200  196  Active  26-03-2015    193.12  57.39 
781 1757 Gaurav eMitra 2014-Vakrangee-Bharatpur Koli Pada Caabkari Mohalla NAi Sadak Deeg Bharatpur  9414715893  343  Active  26-03-2015    106.31  0.00 
782 1758 Sony eMitra Center 2014-Vakrangee-Bharatpur Near Jageshwar Mandir Kumher Bharatpur   9024728351  Active  26-03-2015    .79  26.78 
783 1759 Balaji emitra Center Nadbai 2014-Vakrangee-Bharatpur Balaji Printing Press  Nagar Road Nadbai  9785578785  1825  Active  26-03-2015    192.35  19.13 
784 1760 Shri Radhey Mohan eMitra Center 2014-Vakrangee-Bharatpur Natani Mohalla Deeg Bharatpur  9887905192  Active  26-03-2015    .06  0.00 
785 1761 Dakshita eMitra Center 2014-Vakrangee-Bharatpur Infront of Mohanji Mandir Budh ki Haat Bharatpur  9413916336  1588  Active  26-03-2015    23.56  0.00 
786 1838 Mevaram 2014-Vakrangee-Bharatpur atal Seva kendra kapura, malooka    8290695834  Active  13-04-2015    832.37  0.00 
787 1842 Laxmi Narayan Gaur 2014-Vakrangee-Bharatpur Atal Seva Kendra Ghosinga Kaman Bharatpur    9982906461  Active  13-04-2015    -149.87  0.00 
788 1843 Narendra Kumar 2014-Vakrangee-Bharatpur Atal Seva Kendra Vpo Uadki Dalla Nagar Bharatpur    8502921843  138  Active  13-04-2015    310.23  0.00 
789 1880 Chandra Shekhar 2014-Vakrangee-Bharatpur Vill- madapura,rupbas bharatpur   9694325981  Active  16-04-2015    3660.55  0.00 
790 1881 Anil Kumar 2014-Vakrangee-Bharatpur Vill- Fatehpur,Rupbas bharatpur   9460291176  Active  16-04-2015    -391.2  0.00 
791 1882 Ravindra Singh 2014-Vakrangee-Bharatpur Vill- Vinaua,Rupbas Bharatpur   9602931193  Active  16-04-2015    21.27  0.00 
792 1884 Santosh Kumar 2014-Vakrangee-Bharatpur VPO-Akhaigarh the-nadbai dist-bharatpur    9887472471  440  Active  16-04-2015    847.11  0.00 
793 1885 Ram Sahay 2014-Vakrangee-Bharatpur VPO-Nayabas the-nadbai dist-bharatpur    9785190846  Active  16-04-2015    968.31  0.00 
794 1890 Rajneesh 2014-Vakrangee-Bharatpur Vill-Ajit nagar post-Dharsoni the-weir dist-bharatpur    9828571484  232  Active  16-04-2015    170.02  19.13 
795 1897 Jitendra Kumar 2014-Vakrangee-Bharatpur Dumriya,Roopbas Bharatpur   9928208514  Active  16-04-2015    .51  0.00 
796 1898 Khajan Singh 2014-Vakrangee-Bharatpur Ghata,Aodal Gaddi Rupbas,Bharatpur undefined  8432303126  220  Active  16-04-2015    135.34  0.00 
797 1900 Suresh Chand 2014-Vakrangee-Bharatpur VPO Malah Sawer Bharatpur    180  Active  16-04-2015    1873.77  0.00 
798 1901 Devendra Singh 2014-Vakrangee-Bharatpur VPO-KHATAUTI TEH-NADBAI DIST-BHARATPUR    9785156162  10  Active  16-04-2015    68.94  0.00 
799 1903 Devendra Singh 2014-Vakrangee-Bharatpur VPO Pasta Deeg Bharatpur    8058521363  256  Active  16-04-2015    7.35  0.00 
800 1906 Pradeep Kumar 2014-Vakrangee-Bharatpur Dhaulet Kaman Bharatpur    9610020647  Active  16-04-2015    .61  0.00 
801 1910 Sunil Kumar 2014-Vakrangee-Bharatpur G.P. KHANUA, ROOPBAS BHARATPUR   8441083556  Active  16-04-2015    .19  0.00 
802 1911 Jandail Singh 2014-Vakrangee-Bharatpur G.P. DHANA KHERLI, ROOPBAS  BHARATPUR   9784489724  330  Active  16-04-2015    787.21  0.00 
803 1912 Gopal Singh 2014-Vakrangee-Bharatpur VILL-JAHANPUR POST-MOLONI TEH-WEIR DIST-BHARATPUR    9667902928  Active  16-04-2015    .35  0.00 
804 1913 Harish Chand 2014-Vakrangee-Bharatpur VPO-KARILI TEH-NADBAI DIST-BHARATPUR RAJ    9828354550  Active  16-04-2015    .5  0.00 
805 1914 Sonu Singh 2014-Vakrangee-Bharatpur VPO-RAYSIS TEH-NADBAI DIST-BHARATPUR RAJ     7891285253  Active  16-04-2015    .47  0.00 
806 1915 Sunil Kumar 2014-Vakrangee-Bharatpur VPO-GANGAROLI TEH-NADBAI DIST-BHARATPUR     9929273597  Active  16-04-2015    -992.63  0.00 
807 1916 Jeetendra Singh 2014-Vakrangee-Bharatpur VPO-ENCHERA TEH-NADBAI DIST-BHARATPUR RAJ.    9636948833  645  Active  16-04-2015    3138.96  0.00 
808 1917 Lalaram Saini 2014-Vakrangee-Bharatpur VPO-AKHAIGARH TEH-NADBAI DIST-BHARATPUR RAJ.321614    8107612481  71  Active  16-04-2015    .39  0.00 
809 1918 Rambabu 2014-Vakrangee-Bharatpur G.P. SENDHLI, BHUSAWAR  BHARATPUR   9782635464  Active  16-04-2015    125.76  0.00 
810 1919 Ajaharuddeen 2014-Vakrangee-Bharatpur Atal Seva Kendra Teski Nagar Bharatpur    9587911862  125  Active  16-04-2015    2079.56  0.00 
811 1922 Kanhiya Lal 2014-Vakrangee-Bharatpur Atal Sewa Kendra Satwari,Pahari Nagar ,Bharatpur undefined  9694217678  515  Active  16-04-2015    1176.3  0.00 
812 1941 Mahipal Singh 2014-Vakrangee-Bharatpur VPO Shyourawali Deeg Bharatpur    9828659838  Active  17-04-2015    183.63  0.00 
813 1960 Kuldeep Singh 2014-Vakrangee-Bharatpur VPO-ALIPUR TEH-WEIR DIST-BHARATPUR RAJ.    9252535610  Active  20-04-2015    305.6  0.00 
814 1961 Subhash Chand 2014-Vakrangee-Bharatpur VPO-NAROLI TEH-WEIR DIST-BHARATPUR RAJ    7891273172  120  Active  20-04-2015    666.38  0.00 
815 1970 Sahil 2014-Vakrangee-Bharatpur VILL.-LEVDATEH.-KAMANDIST.-BHARATPUR    8302391952  Active  24-04-2015    -1789.54  0.00 
816 1974 Sukhveer Singh 2014-Vakrangee-Bharatpur BHANDRA, KAMAN  BHARATPUR   9680687275  Active  24-04-2015    -1910.3  0.00 
817 1982 Rajeev 2014-Vakrangee-Bharatpur Bodoli Dahar Nagar Bharatpur    9772131500  127  Active  27-04-2015    144.34  0.00 
818 1985 Amajad Khan 2014-Vakrangee-Bharatpur Udki Dalla Nagar Bharatpur    9783421642  Active  27-04-2015    .83  0.00 
819 1987 Preeti Rani 2014-Vakrangee-Bharatpur G.P. SATWAS, KAMAN  BHARATPUR   9571941818  985  Active  27-04-2015    581.07  0.00 
820 1988 Jeetendra Singh 2014-Vakrangee-Bharatpur Atal Sewa Kendra, Kharera, GP- Kharera, Roopwas     9667424562  Active  27-04-2015    442.66  0.00 
821 1989 Satyendra Kumar 2014-Vakrangee-Bharatpur G.P. KHAKHAWALI, NAGAR  BHARATPUR   9785549716  Active  27-04-2015    72.93  0.00 
822 1991 Jagveer Singh 2014-Vakrangee-Bharatpur Palka,Nagar  Bharatpur   9610077616  305  Active  27-04-2015    1297.62  0.00 
823 1994 Tirthendra Kumar 2014-Vakrangee-Bharatpur NEAR OF BIHARI JI TEMPLE, MAHAL KHAS ROAD  KILA, BHARATPUR undefined  9414208420  Active  27-04-2015    .7  0.00 
824 1995 Ravi Kant 2014-Vakrangee-Bharatpur Vill Jhitaredi Nagar Bharatpur    8239735599  Active  27-04-2015    .12  0.00 
825 1996 Shailendra Kumar 2014-Vakrangee-Bharatpur Near Panchayat Samati Rupbas    05645273071  Active  27-04-2015    .67  0.00 
826 1997 Jiwaram 2014-Vakrangee-Bharatpur Near Peer Mohalla Kaman    7568394564  44  Active  27-04-2015    .66  0.00 
827 2002 Ajam Ali 2014-Vakrangee-Bharatpur MOONSEPUR,KAMAN Bharatpur   9887355386  910  Active  27-04-2015    544.89  0.00 
828 2004 Govind Singh 2014-Vakrangee-Bharatpur KANWARA, KAMAN  BHARATPUR   9875177264  Active  27-04-2015    -494.25  0.00 
829 2010 Tarif Mohhamad 2014-Vakrangee-Bharatpur Ladlaka,Pahari Bharatpur   8875058404  Active  27-04-2015    .22  0.00 
830 2011 Anuj Kumar 2014-Vakrangee-Bharatpur ग्राम पंचायत अऊ तहसील डीग  जिला भरतपुर राजस्थान  9828638957  Active  27-04-2015    .84  0.00 
831 2060 Ashok Kumar 2014-Vakrangee-Bharatpur Dayana Ka Bass Khohri Nagar Bharatpur    9783351699  42  Active  04-05-2015    1568.87  19.13 
832 2063 Asu Khan 2014-Vakrangee-Bharatpur Atal Sewa Kendra,Jurhera Kaman,Bharatpur undefined  9828287548  Active  05-05-2015    .15  0.00 
833 2065 Jeetendra Kumar 2014-Vakrangee-Bharatpur Alamshah,Nagar Bharatpur   8824310939  76  Active  05-05-2015    576.38  38.26 
834 2066 Ghanshyam Sharma 2014-Vakrangee-Bharatpur Jurhera,Kaman Bharatpur   9887458200  112  Active  05-05-2015    1268.74  0.00 
835 2067 Jeetendra Singh 2014-Vakrangee-Bharatpur Shahna,Roopwas Bharatpur   7891440920  45  Active  05-05-2015    916.46  133.91 
836 2069 Dharmendra Singh 2014-Vakrangee-Bharatpur Bachhrain,Weir Bharatpur   9636979736  Active  05-05-2015    1818.58  0.00 
837 2074 Suresh Chand 2014-Vakrangee-Bharatpur Near PNB Bank Deeg Bharatpur    9414695077  4286  Active  05-05-2015    9.85  0.00 
838 2076 Deepak Kumar 2014-Vakrangee-Bharatpur INFRONT BIJALI GHAR OFFICE, MAAN SINGH CIRCLE  BHARATPUR   9610085507  Active  05-05-2015    .13  0.00 
839 2080 Sakir Hussain 2014-Vakrangee-Bharatpur VILL.-MOONGASKATEH/BLOCK .-KAMANDIST.-BHARATPUR    9610030300  Active  05-05-2015    .78  0.00 
840 2085 Satish Chand 2014-Vakrangee-Bharatpur NAGAR PALIKA BAYANA,BAYANA BHARATPUR   9460456748  -1  Active  05-05-2015    .64  0.00 
841 2107 Chandra Prakash 2014-Vakrangee-Bharatpur Near Vatnary Hospital Infront Of Collectrate Bharatpur    9875008565  1460  Active  13-05-2015    384.22  352.00 
842 2109 Shakrulla Khan 2014-Vakrangee-Bharatpur Jalalpur,Nagar Bharatpur   8890841456  615  Active  13-05-2015    1015.83  0.00 
843 2110 Abhishek Jain 2014-Vakrangee-Bharatpur Ward No 10,Weir Bharatpur   05643272027  299  Active  13-05-2015    636.13  0.00 
844 2115 Jeetendra Singh 2014-Vakrangee-Bharatpur G.P- SOGAR, KUMHER  BHARATPUR   8385919296  -400  Active  14-05-2015    .44  0.00 
845 2116 Tahir Mohammad 2014-Vakrangee-Bharatpur V&P- LADMAKA, PAHARI  BHARATPUR   9828554381  Active  14-05-2015    443.09  0.00 
846 2121 Ram Lal Yogi 2014-Vakrangee-Bharatpur Atal Sewa Kendra,Mudiya Nagar,Bharatpur undefined  9784028801  Active  14-05-2015    -24.4  0.00 
847 2122 Sahoon Khan 2014-Vakrangee-Bharatpur Atal Sewa Kendra Dunawal,Nagar Bharatpur   9166731376  Active  14-05-2015    -1200.18  0.00 
848 2124 Prabhu Dayal Sharma 2014-Vakrangee-Bharatpur Atal Sewa Kendra,Gangawak Nagar,Bharatpur undefined  9828574840  154  Active  14-05-2015    .09  0.00 
849 2125 Banti 2014-Vakrangee-Bharatpur Atal Sewa Kendra,Semla Kalan Nagar,Bharatpur undefined  9772722836  -15  Active  14-05-2015    .54  0.00 
850 2126 Ashutosh Soni 2014-Vakrangee-Bharatpur Sarafa Gali,Near Laxman Mandir Bharatpur   8963877343  Active  14-05-2015    .74  0.00 
851 2127 Sandeep Kumar 2014-Vakrangee-Bharatpur Atal Sewa Kendra Dharsoni,Weir Bharatpur   9667356195  Active  14-05-2015    973.39  0.00 
852 2128 Bhoora Singh 2014-Vakrangee-Bharatpur Atal Sewa Kendra,Santrook Kumher,Bharatpur undefined  7823891881  1326  Active  14-05-2015    1104.69  0.00 
853 2141 Kapil Kumar 2014-Vakrangee-Bharatpur Near Govt.Hospital,Jurhera Kaman,Bharatpur undefined  9649753604  60  Active  18-05-2015    362.05  0.00 
854 2142 Khalid Hussain 2014-Vakrangee-Bharatpur Kherli Manna,Kaman Bharatpur   9649262885  1554  Active  18-05-2015    3348.13  0.00 
855 2143 Pavan Kumar 2014-Vakrangee-Bharatpur ATAL SEVA KENDRA, COLLACTRATE CAMPUS  BHARATPUR   9252067407  Active  18-05-2015    .58  0.00 
856 2187 Lakhan Lal 2014-Vakrangee-Bharatpur Village Post Pathena Bhusawar    9694417929  Active  29-05-2015    .26  0.00 
857 2193 Mukhiya Rahul Singh 2014-Vakrangee-Bharatpur Village Gaonri Jurhara Kaman Bharatpur    9783867474  Active  29-05-2015    1144.34  0.00 
858 2196 Dharmendra Singh 2014-Vakrangee-Bharatpur Jagner Road, Gram Panchayat Roopwas, Bharatpur    9610076382  15  Active  29-05-2015    45.56  0.00 
859 2197 Arif 2014-Vakrangee-Bharatpur Sihawali,Nagar Bharatpur   9660444440  Active  29-05-2015    2478.04  0.00 
860 2198 Nirottam Lal 2014-Vakrangee-Bharatpur Atal Seva Kendra Khohara,Bayana Bharatpur   9887290212  11  Active  29-05-2015    15.7  0.00 
861 2203 Savitri 2014-Vakrangee-Bharatpur Atal Seva Kendra Kuchawati    9784727929  111  Active  29-05-2015    4557.97  0.00 
862 2204 Bhim Singh 2014-Vakrangee-Bharatpur Mahamadpura,Bayana Bharatpur   9982460404  Active  29-05-2015    .33  0.00 
863 2205 Suresh Chand 2014-Vakrangee-Bharatpur Atal Seva Kendra Beerampura,Bayana Bharatpur   7891896889  Active  29-05-2015    55.81  0.00 
864 2207 Subhash 2014-Vakrangee-Bharatpur Dayana Ka Bas,Khaohri Nagar,Bharatpur undefined  9983881096  Active  29-05-2015    .82  0.00 
865 2209 Jahira Khan 2014-Vakrangee-Bharatpur Jhantli,Sihawali Nagar,Bharatpur undefined  9610081206  Active  29-05-2015    .86  0.00 
866 2210 Sonveer Singh 2014-Vakrangee-Bharatpur ATAL SEVA KENDRA, SUNARI  SEWAR, BHARATPUR undefined  9784564061  Active  29-05-2015    .08  0.00 
867 2211 Satyendra Singh 2014-Vakrangee-Bharatpur Atal Sewa Kendra, Vinuan, GP- Vinuan, Roopwas    9950151650  69  Active  29-05-2015    534.9  191.30 
868 2215 Kailashee Ram 2014-Vakrangee-Bharatpur Atal Sewa Kendra Madoli,Roopwas Bharatpur   9694385142  260  Active  29-05-2015    397.94  0.00 
869 2218 Bachhu Singh 2014-Vakrangee-Bharatpur Jeewad,Weir Bharatpur   9785835210  75  Active  29-05-2015    10.02  0.00 
870 2219 Sushil Goyal 2014-Vakrangee-Bharatpur Jatmasi Road B-24, Tehsil- Roopwas, Dist- Bharatpur     9001409635  Active  29-05-2015    -149.04  0.00 
871 2249 Sanjay Singh Shastri 2014-Vakrangee-Bharatpur Naunera,Kaman Bharatpur   9828101520  145  Active  03-06-2015    78.37  0.00 
872 2250 Harish 2014-Vakrangee-Bharatpur Naogaon,Kaman Bharatpur   9950025358  Active  04-06-2015    -242.97  0.00 
873 2268 Devendra Singh 2014-Vakrangee-Bharatpur Baroli Chhar,Nadbai Bharatpur   8440088543  115  Active  15-06-2015    125.01  0.00 
874 2269 Mahendra Kumar 2014-Vakrangee-Bharatpur Mathura Gate,Gulal Kund Bharatpur   9351868666  Active  15-06-2015    380.84  0.00 
875 2270 Bhoopendra Kumar 2014-Vakrangee-Bharatpur Atal Seva Kendra Pasopa    9166080776  Active  15-06-2015    8963.38  0.00 
876 2271 Yogesh Kumar 2014-Vakrangee-Bharatpur Near Hospital Janoothar Deeg Bharatpur    8104013819  Active  15-06-2015    3.63  0.00 
877 2272 Ankit Chahar 2014-Vakrangee-Bharatpur Near Manav Bharati School Anah Gate Bharatpur    9782561418  Active  15-06-2015    .02  0.00 
878 2273 Nirbhay Singh 2014-Vakrangee-Bharatpur Near N S Deshwal School Sawer Bharatpur    9929000140  785  Active  15-06-2015    936.6  26.78 
879 2274 Krishan Mohan 2014-Vakrangee-Bharatpur Dumriya ,Roopwas Bharatpur   9982321122  Active  16-06-2015    .43  0.00 
880 2275 Sateesh Chand 2014-Vakrangee-Bharatpur Sahana,Roopwas Bharatpur   9799457542  364  Active  16-06-2015    68.51  0.00 
881 2276 Gyan Deep Nagar 2014-Vakrangee-Bharatpur Atal Seva Kendra Khoh    8741950051  Active  16-06-2015    2766.87  0.00 
882 2278 Majid Khan 2014-Vakrangee-Bharatpur Papra,Kaman Bharapur   8824067574  -15  Active  16-06-2015    -149.62  0.00 
883 2279 Manish Kumar 2014-Vakrangee-Bharatpur Near Thesil Bapu Bazar Nagar Bharatpur    9694286686  1944  Active  16-06-2015    .48  133.91 
884 2280 Raju Saini 2014-Vakrangee-Bharatpur Village Nyamadpur Post Dharsoni Weir Bharatpur    9414489608  1560  Active  16-06-2015    25.45  26.78 
885 2281 Kaushal Dutt Mishra 2014-Vakrangee-Bharatpur SHYAM SADAN, KHIRNI GHAT  BHARATPUR   9460680394  Active  16-06-2015    .88  0.00 
886 2282 Sandeep Agrawal 2014-Vakrangee-Bharatpur Opp. Bank Of Baroda Station Road New Mandi Bharatpur    9828535797  214  Active  16-06-2015    .4  0.00 
887 2283 Mubarik Ali 2014-Vakrangee-Bharatpur G.P SABLANA, KAMAN  BHARATPUR   9610209782  Active  16-06-2015    -865.56  0.00 
888 2284 Chetram 2014-Vakrangee-Bharatpur ATAL SEVA KENDRA, SUHANS  WEIR, BHARATPUR undefined  9929685760  Active  16-06-2015    123.14  0.00 
889 2291 Rajendra Singh 2014-Vakrangee-Bharatpur PAPRERA, KUMHER  BHARATPUR   9587451131  Active  19-06-2015    .56  0.00 
890 2292 Arvind Kumar Kansal 2014-Vakrangee-Bharatpur RAM MOBILE, GOAL BAGH ROAD  BHARATPUR   8955888421  233  Active  19-06-2015    18.69  65.04 
891 2338 Tulsiram 2014-Vakrangee-Bharatpur ANAND NAGAR, BHARATPUR    9950582507  724  Active  14-07-2015    585.81  0.00 
892 2339 Manish Kumar 2014-Vakrangee-Bharatpur Near Chand Pol Gate Namak Katra Bharatpur    00000  17  Active  14-07-2015    13.23  0.00 
893 2340 Santosh Kumar 2014-Vakrangee-Bharatpur Kasai Pada ,Ward No 4  Bayana,Bharatpur undefined  9587921359  Active  14-07-2015    31.98  0.00 
894 2341 Vishwajit Singh 2014-Vakrangee-Bharatpur Deeg Bharatpur     7891847685  Active  14-07-2015    146.83  0.00 
895 2342 Kayyum Khan 2014-Vakrangee-Bharatpur G.P. PAI, KAMAN  BHARATPUR   8696790119  453  Active  14-07-2015    .17  0.00 
896 2347 Irshad Ahmad 2014-Vakrangee-Bharatpur ATAL SEVA KENDRA, JURHERA  PAHARI, BHARATPUR undefined  9413878652  166  Active  14-07-2015    513.06  26.78 
897 2348 Sajid Khan 2014-Vakrangee-Bharatpur ATAL SEVA KENDRA, KHOHRI  NAGAR, BHARATPUR undefined  9461629712  Active  14-07-2015    .84  0.00 
898 2349 Harpratap Singh 2014-Vakrangee-Bharatpur LUDHAWAI, SEWAR  BHARATPUR   9829758742  139  Active  14-07-2015    212.4  19.13 
899 2350 Ram Kumar 2014-Vakrangee-Bharatpur BHONT, ROOPBAS  BHARATPUR   8696041322  Active  14-07-2015    .09  0.00 
900 2351 Brij Raj Singh 2014-Vakrangee-Bharatpur G.P. FATEHPUR, ROOPBAS  BHARATPUR   9413313148  611  Active  14-07-2015    45.53  0.00 
901 2380 Ravi Kant 2014-Vakrangee-Bharatpur ATAL SEVA KENDRA, SALAIMPUR KHURD  WEIR, BHARATPUR undefined  7891095224  Active  29-07-2015    .9  0.00 
902 2381 Shivkant Sharma 2014-Vakrangee-Bharatpur WARD NO. 4, NAGAR  BHARATPUR   380  Active  29-07-2015    24.97  0.00 
903 2382 Prem Singh Lodhi 2014-Vakrangee-Bharatpur ATAL SEVA KENDRA, BHAVANPURA  ROOPBAS, BHARATPUR undefined  7023122626  Active  29-07-2015    3.83  0.00 
904 2383 Bharat Singh 2014-Vakrangee-Bharatpur ATAL SEVA KENDRA, DEEWALI  BHUSAWAR, BHARATPUR undefined  05643-30832  Active  29-07-2015    256.4  0.00 
905 2384 Ved Prakash 2014-Vakrangee-Bharatpur Atal Seva Kendra,Pichoona Rupbas,Bharatpur undefined  9887908951  Active  29-07-2015    .46  0.00 
906 2385 Ajayveer Singh 2014-Vakrangee-Bharatpur Dahara,Kumher Bharatpur   9414327298  357  Active  29-07-2015    380.3  19.13 
907 2390 Yashpal Sharma 2014-Vakrangee-Bharatpur G.P. GAONRI, SEWAR  BHARATPUR   9828736992  469  Active  03-08-2015    954.5  0.00 
908 2391 Vijay Singh 2014-Vakrangee-Bharatpur Belara Kalan,Kumher Bharatpur   8696019883  236  Active  03-08-2015    740.61  0.00 
909 2392 Laxmi Kant Sharma 2014-Vakrangee-Bharatpur UCHCHAIN, ROOPBAS  BHARATPUR   8502803005  167  Active  03-08-2015    .55  65.04 
910 2406 Devesh Kumar 2014-Vakrangee-Bharatpur INFRONT OF FOREST DEPT. KACHAIRI ROAD, BAYANA  BHARATPUR   9887711750  Active  05-08-2015    .41  0.00 
911 2408 Raju Kumar Meena 2014-Vakrangee-Bharatpur Near Of Old Govt. Hospital, Uchchain  Roopbas, Bharatpur undefined  9461645137  Active  05-08-2015    .79  0.00 
912 2409 Govind 2014-Vakrangee-Bharatpur Tehsil Road, Kumher  Bharatpur   9460290631  155  Active  05-08-2015    147.65  19.13 
913 2410 Virpal Singh 2014-Vakrangee-Bharatpur G.P. Sinsini, Deeg  Bharatpur   9509213860  747  Active  05-08-2015    272.98  63.13 
914 2411 Raj Bahadur 2014-Vakrangee-Bharatpur Nagla Tula Road Rudabal    274384  Active  05-08-2015    .85  0.00 
915 2414 Hakim Singh 2014-Vakrangee-Bharatpur Atal Seva Kendra Ludhbai Sewar Bharatpur    9694525781  147  Active  05-08-2015    331.88  0.00 
916 2415 Om Prakash 2014-Vakrangee-Bharatpur Mori Mohalla Kaman Bypass Road Deeg Bharatpur    8739885215  30  Active  05-08-2015    698.52  0.00 
917 2416 Gyanendra Singh 2014-Vakrangee-Bharatpur Chetna Path Kaman Gate Deeg    9785184667  210  Active  05-08-2015    159.54  38.26 
918 2417 Yogesh Kumar 2014-Vakrangee-Bharatpur Infront Of MSJ Collage, Bharatpur    9982833443  83  Active  05-08-2015    122.43 
919 2419 Sohan Singh 2014-Vakrangee-Bharatpur Kathwara Nagar Bharatpur    9636964732  Active  05-08-2015    .43  0.00 
920 2420 Taiyab Khan 2014-Vakrangee-Bharatpur Gulpara Nagar Bharatpur    9461044503  Active  05-08-2015    .91  0.00 
921 2427 Shahid 2014-Vakrangee-Bharatpur Pahari, Bharatpur  Rajasthan   9001159127  553  Active  10-08-2015    320.09  0.00 
922 2437 Pankaj Foujdar 2014-Vakrangee-Bharatpur Atal Seva Kendra Bandha Chot    9929121238  Active  18-08-2015    863.06  0.00 
923 2438 Rajesh Kumar 2014-Vakrangee-Bharatpur Village Kharari Bayana Bharatpur    9636395491  96  Active  18-08-2015    146.42  0.00 
924 2440 Yogesh Kumar Sharma 2014-Vakrangee-Bharatpur VPO Sihawali Nagar Bharatpur    9928266413  Active  18-08-2015    -453.52  0.00 
925 2441 Ravi Kumar Sharma 2014-Vakrangee-Bharatpur Near PNB Januthar Deeg Bharatpur    9460741539  43  Active  18-08-2015    680.22  0.00 
926 2443 Vinod Kumar 2014-Vakrangee-Bharatpur Atal Seva Kendra Brahmbad,Bayana Bharatpur   9950359214  1392  Active  18-08-2015    .01  76.52 
927 2444 Mahendra Singh Jatav 2014-Vakrangee-Bharatpur Vill-Sent,Kumher Bharatpur   1234  Active  18-08-2015    31.64  0.00 
928 2463 Prakash Singh 2014-Vakrangee-Bharatpur VPO Bodoli Dehar Pahari    9875114946  Active  27-08-2015    215.91  0.00 
929 2464 Rahul Katara 2014-Vakrangee-Bharatpur Bhusawar Gate Weir Bharatpur    8946905980  770  Active  27-08-2015    6000.83  1320.00 
930 2465 Nirbhay Saini 2014-Vakrangee-Bharatpur Atal Seva Kendra Ballabhgarh Bhusawar    8104633806  Active  27-08-2015    310.41  0.00 
931 2470 Upendra Singh 2014-Vakrangee-Bharatpur G.P. Fulwara, Sewar  Bharatpur   7792974800  132  Active  28-08-2015    306.52  0.00 
932 2472 Madhav Singh 2014-Vakrangee-Bharatpur Bansi Khurd, Dhanota  Sewar, Bharatpur undefined  8963049020  198  Active  28-08-2015    2365.33  0.00 
933 2474 Ajay Pal Singh 2014-Vakrangee-Bharatpur Bahnera, Uncha Nagla  Sewar, Bharatpur undefined  9799242595  Active  28-08-2015    6.03  4.78 
934 2477 Bhola 2014-Vakrangee-Bharatpur Milsawa Roopwas Bharatpur    9660914947  Active  28-08-2015    .21  0.00 
935 2478 Manoj Kumar Sharma 2014-Vakrangee-Bharatpur Rupam Lauge Ke Samne, Saras Chauraha  Bharatpur   9828687888  2395  Active  28-08-2015    147.67  19.13 
936 2479 Ajrudin 2014-Vakrangee-Bharatpur Sahsan, Pahari  Bharatpur   7023045400  Active  28-08-2015    .45  0.00 
937 2480 Bhagawan Singh 2014-Vakrangee-Bharatpur G.P. Ajan, Kumher  Bharatpur   9950455874  184  Active  28-08-2015    397.99  0.00 
938 2504 Tej Singh 2014-Vakrangee-Bharatpur G.P. Undra, Sewar  Bharatpur   9680822189  Active  10-09-2015    62.97  0.00 
939 2505 Amitabh Singh 2014-Vakrangee-Bharatpur Khangri, Nadbai  Bharatpur   9983338565  872  Active  10-09-2015    1022.62  0.00 
940 2507 Surendra Singh 2014-Vakrangee-Bharatpur Near Of PNB Bank, Sinsini  Deeg, Bharatpur undefined  8058715860  262  Active  10-09-2015    483.62  0.00 
941 2513 Raju 2014-Vakrangee-Bharatpur Nagar, Tehsil Nagar  Bharatpur   8441902713  Active  10-09-2015    .94  0.00 
942 2514 Ajay Vir Singh 2014-Vakrangee-Bharatpur Near RTO Office, Bharatpur    7568340316  785  Active  10-09-2015    235.63  53.57 
943 2527 Girdhari 2014-Vakrangee-Bharatpur Atal Seva Kendra Khera Thakur    9828885390  161  Active  18-09-2015    1785.24  19.13 
944 2536 Shakil 2014-Vakrangee-Bharatpur Kherli Manna Pahari Bharatpur    9828263823  80  Active  01-10-2015    1028.4  0.00 
945 2539 Surendra Singh 2014-Vakrangee-Bharatpur Near PNB Januthar Deeg Bharatpur    9694943205  148  Active  01-10-2015    289.94  0.00 
946 2541 Hemraj 2014-Vakrangee-Bharatpur Gopalgarh, Pahari  Bharatpur   9982500850  437  Active  01-10-2015    1095.16  0.00 
947 2545 Mukesh Kumar 2014-Vakrangee-Bharatpur Lal Darbaja Bayana Bharatpur    8561062216  80  Active  01-10-2015    681.67  19.13 
948 2546 Jagdish 2014-Vakrangee-Bharatpur G.P. Dawak, Nagar  Bharatpur   9772413977  410  Active  01-10-2015    1826.03  0.00 
949 2547 Dharam Chand 2014-Vakrangee-Bharatpur G.P. Ikran, Block- Sewar  Bharatpur   9660445358  640  Active  01-10-2015    1164.49  0.00 
950 2548 Ajay Choudhary 2014-Vakrangee-Bharatpur Nagla Dharsoni, Dharsoni  Weir, Bharatpur undefined  9929452588  10  Active  01-10-2015    365.53  0.00 
951 2550 Satwant Singh 2014-Vakrangee-Bharatpur Sikari Nagar Bharatpur    7568932324  42  Active  01-10-2015    4418.88  0.00 
952 2560 Satish Kumar 2014-Vakrangee-Bharatpur Atal Seva Kendra,Jaspura Moroli Bayana,Bharatpur undefined  7891322083  Active  07-10-2015    112.64  0.00 
953 2570 Dharamvir Singh 2014-Vakrangee-Bharatpur G.P. Jatoli Rathwan, Block Sewar  Bharatpur   9929597604  Active  12-10-2015    .24  0.00 
954 2571 Govind Kumar 2014-Vakrangee-Bharatpur Uncha Nagla Bharatpur    9887763232  Active  12-10-2015    215.74  0.00 
955 2574 Natwar Nandan 2014-Vakrangee-Bharatpur Haat Bazar Nadbai Bharatpur    9509726110  Active  12-10-2015    12.15  0.00 
956 2576 Chanchal Kumar Bansal 2014-Vakrangee-Bharatpur Near Nagla Tula Chauhara Bansi Pahadpur Road Rudawal    8432195048  275  Active  12-10-2015    .51  57.39 
957 2577 Parshotam Kumar Pandey 2014-Vakrangee-Bharatpur Near Arya Samaj Mandir Bhusawar Bharatpur    9887928964  1271  Active  12-10-2015    1111.4  69.83 
958 2578 Rahul Dev 2014-Vakrangee-Bharatpur Naw Dev Photo Studio  Near Bus Stand In Front Of Midway Nagar Road Deeg   9828292151  130  Active  12-10-2015    142.77  0.00 
959 2579 Deepak Agrawal 2014-Vakrangee-Bharatpur Arya Samaj Road, Bayana  Bharatpur   8952057200  335  Active  12-10-2015    290.84  19.13 
960 2598 Idarish Khan 2014-Vakrangee-Bharatpur Peepal Khera Pahari Bharatpur    8696505227  Active  21-10-2015    -767.88  0.00 
961 2599 Girdhari Lal Sharma 2014-Vakrangee-Bharatpur Near Tata Indicom Tower, Pahari  Bharatpur   8058323290  1735  Active  21-10-2015    6.96  38.26 
962 2612 Hitesh Dixit 2014-Vakrangee-Bharatpur Near Mathura Gate,Bharatpur    9414120607  90  Active  02-11-2015    44.16  19.13 
963 2633 Sumit Singh 2014-Vakrangee-Bharatpur Durga E-Mitra,Chiksana Sewar,Bharatpur undefined  7790852233  75  Active  06-11-2015    954.96  0.00 
964 2636 Lokendra Kumar 2014-Vakrangee-Bharatpur Infront Of PNB,Ward No.-08 Deeg,Bharatpur undefined  9667137383  Active  06-11-2015    .81  0.00 
965 2656 Manvendra 2014-Vakrangee-Bharatpur Sewar , Hathaini   Bharatpur   9799348952  356  Active  26-11-2015    1571.29  0.00 
966 2657 Hotam Singh Parmar 2014-Vakrangee-Bharatpur Tarbeejpur,Singhaniya   Bayana    8769337565  15  Active  26-11-2015    8033.64  0.00 
967 2659 Rakesh Kumar Sharma 2014-Vakrangee-Bharatpur Pahari , Nagar   Bharatpur   9784592724  316  Active  26-11-2015    .19  57.39 
968 2660 Lokesh Kumar Bansal 2014-Vakrangee-Bharatpur Bansal E-Mitra,Ward No.-11 Pratap Colony,Kumher Gate Bharatpur  9694470539  Active  26-11-2015    776.43  0.00 
969 2683 Deevan Singh Bhandart 2014-Vakrangee-Bharatpur Mahalpur Choora ,Rupbas   Bharatpur    8739836426  Active  07-12-2015    176.96  0.00 
970 2684 Avadhesh Kumar 2014-Vakrangee-Bharatpur Rupbas , Sadpura   Bharatpur   9587214177  Active  07-12-2015    0.00 
971 2685 Ruchi Bansal 2014-Vakrangee-Bharatpur Ward No 1 , Bharatpur     9468885873  133  Active  07-12-2015    933.33  0.00 
972 2687 Afsar Ali 2014-Vakrangee-Bharatpur Khanuwa , Rupbas   Bharatpur   8003617737  689  Active  07-12-2015    153.25  0.00 
973 2689 Munfaid Ahmad 2014-Vakrangee-Bharatpur Nagla Kunda , Kaman   Bharatpur    9982562793  19  Active  07-12-2015    687.21  0.00 
974 2690 Tara Chand Sharma 2014-Vakrangee-Bharatpur Ward No 25 , Bayana   Bharatpur   9887816681  779  Active  07-12-2015    37.15  0.00 
975 2692 Pushpendra Singh 2014-Vakrangee-Bharatpur Barigha , Rupbas   Bharatpur    9587467391  Active  07-12-2015    79.46  0.00